Zarling — WDD7883 — position and weather

sailwx.info

Track history (hours):
 
Tides and Currents Weather Stations Pressure Air Temp Water Temp Dewpoint Dewpoint Depression Visibility Wind Speed Wind Dir Waves Ship Positions

Zarling

Owner: Clean Rivers Co-op, Portland, OR. More information available from US FCC via Universal Licensing System.

Last reported at 2016-Jun-28 12:34 UTC. Time now 2016-Jun-28 13:28 UTC.
Position N 46°10' W 123°03'.

Length 12 m.

Type: Pollution control. MMSI: 3699126.

Date/timePositionNaut miles runAvg speedWind from/ knotsBaromVisibWave heightAir tempDewpointWater temp
2016-Jun-28 12:34N 46°10' W 123°03'331188.2
2016-Jun-28 12:32N 46°11' W 123°51'56517.3
2016-Jun-28 12:25N 45°37' W 122°48'3540.2
2016-Jun-28 11:33N 46°10' W 123°03'331200.1
2016-Jun-28 11:32N 46°11' W 123°51'56974.3
2016-Jun-28 11:28N 45°37' W 122°48'5659.2
2016-Jun-28 10:32N 46°11' W 123°51'331463.6
2016-Jun-28 10:30N 46°10' W 123°03'35977.7
2016-Jun-28 10:28N 45°37' W 122°48'3538.0
2016-Jun-28 09:34N 46°10' W 123°03'331188.2
2016-Jun-28 09:32N 46°11' W 123°51'56974.2
2016-Jun-28 09:28N 45°37' W 122°48'5656.2
2016-Jun-28 08:29N 46°11' W 123°51'566081.6
2016-Jun-28 08:28N 45°37' W 122°48'352361.2
2016-Jun-28 08:28N 46°10' W 123°03'14273.1
2016-Jun-28 08:24N 46°12' W 123°23'1416.4
2016-Jun-28 07:34N 46°10' W 123°03'331224.6
2016-Jun-28 07:32N 46°11' W 123°51'56960.3
2016-Jun-28 07:28N 45°37' W 122°48'3538.0
2016-Jun-28 06:34N 46°10' W 123°03'35977.8
2016-Jun-28 06:31N 45°37' W 122°48'561365.3
2016-Jun-28 06:29N 46°11' W 123°51'0 0.0
2016-Jun-28 04:32N 46°11' W 123°51'56955.7
2016-Jun-28 04:28N 45°37' W 122°48'35304.5
2016-Jun-28 04:22N 46°10' W 123°03'1455.3
2016-Jun-28 04:06N 46°12' W 123°23'1425.5
2016-Jun-28 03:34N 46°10' W 123°03'148375.0
2016-Jun-28 03:33N 46°12' W 123°23'431244.9
2016-Jun-28 03:31N 45°37' W 122°48'561365.3
2016-Jun-28 03:29N 46°11' W 123°51'0 0.0
2016-Jun-28 02:32N 46°11' W 123°51'566690.2
2016-Jun-28 02:31N 45°37' W 122°48'432661.5
2016-Jun-28 02:30N 46°12' W 123°23'14290.4
2016-Jun-28 02:28N 46°10' W 123°03'3336.0
2016-Jun-28 01:32N 46°11' W 123°51'331379.5
2016-Jun-28 01:30N 46°10' W 123°03'35985.5
2016-Jun-28 01:28N 45°37' W 122°48'43257.3
2016-Jun-28 01:18N 46°12' W 123°23'1418.7
2016-Jun-28 00:34N 46°10' W 123°03'331263.3
2016-Jun-28 00:32N 46°11' W 123°51'565734.4
2016-Jun-28 00:31N 45°37' W 122°48'432661.5
2016-Jun-28 00:30N 46°12' W 123°23'2020.1
2016-Jun-27 23:32N 46°11' W 123°51'566474.4
2016-Jun-27 23:31N 45°37' W 122°48'352317.8
2016-Jun-27 23:30N 46°10' W 123°03'1446.2
2016-Jun-27 23:12N 46°12' W 123°23'1421.5
2016-Jun-27 22:34N 46°10' W 123°03'331250.1
2016-Jun-27 22:32N 46°11' W 123°51'567433.5
2016-Jun-27 22:31N 45°37' W 122°48'43196.6
2016-Jun-27 22:18N 46°12' W 123°23'1418.7
2016-Jun-27 21:33N 46°10' W 123°03'331318.8
2016-Jun-27 21:32N 46°11' W 123°51'565424.5
2016-Jun-27 21:31N 45°37' W 122°48'43369.3
2016-Jun-27 21:24N 46°12' W 123°23'1416.5
2016-Jun-27 20:34N 46°10' W 123°03'331318.8
2016-Jun-27 20:32N 46°11' W 123°51'565575.2
2016-Jun-27 20:31N 45°37' W 122°48'43102.8
2016-Jun-27 20:06N 46°12' W 123°23'2034.0
2016-Jun-27 19:32N 46°11' W 123°51'331395.5
2016-Jun-27 19:30N 46°10' W 123°03'147178.1
2016-Jun-27 19:30N 46°12' W 123°23'431286.4
2016-Jun-27 19:28N 45°37' W 122°48'0 0.0
2016-Jun-27 18:33N 45°37' W 122°48'353476.8
2016-Jun-27 18:33N 46°10' W 123°03'333158.2
2016-Jun-27 18:32N 46°11' W 123°51'20733.0
2016-Jun-27 18:30N 46°12' W 123°23'1414.7
2016-Jun-27 17:33N 46°10' W 123°03'331333.5
2016-Jun-27 17:32N 46°11' W 123°51'565575.2
2016-Jun-27 17:31N 45°37' W 122°48'43371.1
2016-Jun-27 17:24N 46°12' W 123°23'2022.5
2016-Jun-27 16:32N 46°11' W 123°51'20913.8
2016-Jun-27 16:31N 46°12' W 123°23'14361.5
2016-Jun-27 16:29N 46°10' W 123°03'355214.3
2016-Jun-27 16:28N 45°37' W 122°48'3537.5
2016-Jun-27 15:33N 46°10' W 123°03'332667.0
2016-Jun-27 15:32N 46°11' W 123°51'20198.2
2016-Jun-27 15:26N 46°12' W 123°23'43698.5
2016-Jun-27 15:22N 45°37' W 122°48'4352.5
2016-Jun-27 14:33N 46°12' W 123°23'141225.6
2016-Jun-27 14:33N 46°10' W 123°03'332667.0
2016-Jun-27 14:32N 46°11' W 123°51'56924.9
2016-Jun-27 14:28N 45°37' W 122°48'0 0.0
2016-Jun-27 13:31N 45°37' W 122°48'432661.5
2016-Jun-27 13:30N 46°12' W 123°23'141256.2
2016-Jun-27 13:30N 46°10' W 123°03'332791.0
2016-Jun-27 13:29N 46°11' W 123°51'3335.6
2016-Jun-27 12:33N 46°10' W 123°03'332791.0
2016-Jun-27 12:32N 46°11' W 123°51'564778.7
2016-Jun-27 12:31N 45°37' W 122°48'432708.5
2016-Jun-27 12:30N 46°12' W 123°23'1414.5
2016-Jun-27 11:33N 46°10' W 123°03'332666.9
2016-Jun-27 11:32N 46°11' W 123°51'20710.7
2016-Jun-27 11:30N 46°12' W 123°23'431275.8
2016-Jun-27 11:28N 45°37' W 122°48'3537.5
2016-Jun-27 10:33N 46°10' W 123°03'332553.5
2016-Jun-27 10:32N 46°11' W 123°51'565424.5
2016-Jun-27 10:31N 45°37' W 122°48'432708.2
2016-Jun-27 10:30N 46°12' W 123°23'2020.1
2016-Jun-27 09:32N 46°11' W 123°51'565146.3
2016-Jun-27 09:31N 45°37' W 122°48'35455.1
2016-Jun-27 09:27N 46°10' W 123°03'1441.0
2016-Jun-27 09:06N 46°12' W 123°23'2034.2
2016-Jun-27 08:32N 46°11' W 123°51'564561.2
2016-Jun-27 08:31N 45°37' W 122°48'43372.0
2016-Jun-27 08:24N 46°12' W 123°23'14229.4
2016-Jun-27 08:21N 46°10' W 123°03'3341.1
2016-Jun-27 07:32N 46°11' W 123°51'33916.1
2016-Jun-27 07:30N 46°10' W 123°03'351375.4
2016-Jun-27 07:28N 45°37' W 122°48'43161.3
2016-Jun-27 07:12N 46°12' W 123°23'1421.1
2016-Jun-27 06:33N 46°10' W 123°03'332609.0
2016-Jun-27 06:32N 46°11' W 123°51'565903.1
2016-Jun-27 06:31N 45°37' W 122°48'432530.6
2016-Jun-27 06:30N 46°12' W 123°23'2020.1
2016-Jun-27 05:32N 46°11' W 123°51'564014.1
2016-Jun-27 05:31N 45°37' W 122°48'351375.2
2016-Jun-27 05:30N 46°10' W 123°03'14156.1
2016-Jun-27 05:24N 46°12' W 123°23'1416.2
2016-Jun-27 04:33N 46°10' W 123°03'334000.4
2016-Jun-27 04:32N 46°11' W 123°51'56850.4
2016-Jun-27 04:28N 45°37' W 122°48'43161.0
2016-Jun-27 04:12N 46°12' W 123°23'1421.1
2016-Jun-27 03:33N 46°10' W 123°03'333158.2
2016-Jun-27 03:32N 46°11' W 123°51'56908.2
2016-Jun-27 03:28N 45°37' W 122°48'5659.4
2016-Jun-27 02:32N 46°11' W 123°51'56892.0
2016-Jun-27 02:28N 45°37' W 122°48'351331.5
2016-Jun-27 02:27N 46°10' W 123°03'3336.6
2016-Jun-27 01:32N 46°11' W 123°51'564363.2
2016-Jun-27 01:31N 45°37' W 122°48'35448.6
2016-Jun-27 01:27N 46°10' W 123°03'3336.6
2016-Jun-27 00:32N 46°11' W 123°51'33839.2
2016-Jun-27 00:30N 46°10' W 123°03'351508.0
2016-Jun-27 00:28N 45°37' W 122°48'43117.0
2016-Jun-27 00:06N 46°12' W 123°23'2034.2
2016-Jun-26 23:32N 46°11' W 123°51'564363.2
2016-Jun-26 23:31N 45°37' W 122°48'432661.5
2016-Jun-26 23:30N 46°12' W 123°23'14231.6
2016-Jun-26 23:27N 46°10' W 123°03'3336.6
2016-Jun-26 22:32N 46°11' W 123°51'564460.1
2016-Jun-26 22:31N 45°37' W 122°48'432616.4
2016-Jun-26 22:30N 46°12' W 123°23'141358.0
2016-Jun-26 22:30N 46°10' W 123°03'1414.1
2016-Jun-26 21:30N 46°12' W 123°23'141435.6
2016-Jun-26 21:30N 46°10' W 123°03'333333.7
2016-Jun-26 21:29N 46°11' W 123°51'564181.4
2016-Jun-26 21:28N 45°37' W 122°48'5659.5
2016-Jun-26 20:32N 46°11' W 123°51'564270.3
2016-Jun-26 20:31N 45°37' W 122°48'351303.8
2016-Jun-26 20:30N 46°10' W 123°03'1473.4
2016-Jun-26 20:18N 46°12' W 123°23'1418.4
2016-Jun-26 19:33N 46°10' W 123°03'334000.4
2016-Jun-26 19:32N 46°11' W 123°51'563786.9
2016-Jun-26 19:31N 45°37' W 122°48'3535.6
2016-Jun-26 18:33N 46°10' W 123°03'333077.3
2016-Jun-26 18:32N 46°11' W 123°51'56586.9
2016-Jun-26 18:26N 45°37' W 122°48'5661.6
2016-Jun-26 17:32N 46°11' W 123°51'33237.7
2016-Jun-26 17:24N 46°10' W 123°03'351526.1
2016-Jun-26 17:22N 45°37' W 122°48'5666.7
2016-Jun-26 16:32N 46°11' W 123°51'564014.1
2016-Jun-26 16:31N 45°37' W 122°48'351290.3
2016-Jun-26 16:30N 46°10' W 123°03'0 0.0
2016-Jun-26 15:33N 46°10' W 123°03'333429.0
2016-Jun-26 15:32N 46°11' W 123°51'56884.2
2016-Jun-26 15:28N 45°37' W 122°48'5659.6
2016-Jun-26 14:32N 46°11' W 123°51'33805.5
2016-Jun-26 14:30N 46°10' W 123°03'35283.2
2016-Jun-26 14:22N 45°37' W 122°48'4352.5
2016-Jun-26 13:33N 46°12' W 123°23'20963.9
2016-Jun-26 13:32N 46°11' W 123°51'564270.1
2016-Jun-26 13:31N 45°37' W 122°48'351251.6
2016-Jun-26 13:30N 46°10' W 123°03'3334.8
2016-Jun-26 12:32N 46°11' W 123°51'563859.7
2016-Jun-26 12:31N 45°37' W 122°48'351264.3
2016-Jun-26 12:30N 46°10' W 123°03'1473.6
2016-Jun-26 12:18N 46°12' W 123°23'2025.4
2016-Jun-26 11:32N 46°11' W 123°51'563935.4
2016-Jun-26 11:31N 45°37' W 122°48'432530.6
2016-Jun-26 11:30N 46°12' W 123°23'141435.6
2016-Jun-26 11:30N 46°10' W 123°03'3334.8
2016-Jun-26 10:32N 46°11' W 123°51'33800.1
2016-Jun-26 10:30N 46°10' W 123°03'35470.5
2016-Jun-26 10:25N 45°37' W 122°48'432572.8
2016-Jun-26 10:24N 46°12' W 123°23'2022.5
2016-Jun-26 09:32N 46°11' W 123°51'563935.4
2016-Jun-26 09:31N 45°37' W 122°48'43366.7
2016-Jun-26 09:24N 46°12' W 123°23'14234.8
2016-Jun-26 09:21N 46°10' W 123°03'3341.2
2016-Jun-26 08:32N 46°11' W 123°51'563649.0
2016-Jun-26 08:31N 45°37' W 122°48'351331.5
2016-Jun-26 08:30N 46°10' W 123°03'0 0.0
2016-Jun-26 07:33N 46°10' W 123°03'333077.3
2016-Jun-26 07:32N 46°11' W 123°51'563786.9
2016-Jun-26 07:31N 45°37' W 122°48'3535.6
2016-Jun-26 06:33N 46°10' W 123°03'14346.5
2016-Jun-26 06:30N 46°12' W 123°23'201134.9
2016-Jun-26 06:29N 46°11' W 123°51'56843.3
2016-Jun-26 06:25N 45°37' W 122°48'5663.0
2016-Jun-26 05:32N 46°11' W 123°51'20611.9
2016-Jun-26 05:30N 46°12' W 123°23'141358.1
2016-Jun-26 05:30N 46°10' W 123°03'351507.7
2016-Jun-26 05:28N 45°37' W 122°48'5659.6
2016-Jun-26 04:32N 46°11' W 123°51'563716.8
2016-Jun-26 04:31N 45°37' W 122°48'351303.6
2016-Jun-26 04:30N 46°10' W 123°03'1435.8
2016-Jun-26 04:06N 46°12' W 123°23'1424.9
2016-Jun-26 03:33N 46°10' W 123°03'334138.4
2016-Jun-26 03:32N 46°11' W 123°51'56854.1
2016-Jun-26 03:28N 45°37' W 122°48'5659.7
2016-Jun-26 02:32N 46°11' W 123°51'33759.6
2016-Jun-26 02:30N 46°10' W 123°03'351526.4
2016-Jun-26 02:28N 45°37' W 122°48'5659.7
2016-Jun-26 01:32N 46°11' W 123°51'33784.4
2016-Jun-26 01:30N 46°10' W 123°03'351490.0
2016-Jun-26 01:28N 45°37' W 122°48'3537.5
2016-Jun-26 00:33N 46°10' W 123°03'335000.6
2016-Jun-26 00:32N 46°11' W 123°51'56836.3
2016-Jun-26 00:28N 45°37' W 122°48'3537.5
2016-Jun-25 23:33N 46°10' W 123°03'335714.9
2016-Jun-25 23:32N 46°11' W 123°51'56825.9
2016-Jun-25 23:28N 45°37' W 122°48'3537.5
2016-Jun-25 22:33N 46°10' W 123°03'336000.6
2016-Jun-25 22:32N 46°11' W 123°51'563136.0
2016-Jun-25 22:31N 45°37' W 122°48'432708.2
2016-Jun-25 22:30N 46°12' W 123°23'1414.5
2016-Jun-25 21:33N 46°10' W 123°03'335455.2
2016-Jun-25 21:32N 46°11' W 123°51'563237.2
2016-Jun-25 21:31N 45°37' W 122°48'43198.2
2016-Jun-25 21:18N 46°12' W 123°23'2025.5
2016-Jun-25 20:32N 46°11' W 123°51'33759.6
2016-Jun-25 20:30N 46°10' W 123°03'35472.3
2016-Jun-25 20:25N 45°37' W 122°48'43136.0
2016-Jun-25 20:06N 46°12' W 123°23'2034.4
2016-Jun-25 19:32N 46°11' W 123°51'563237.2
2016-Jun-25 19:31N 45°37' W 122°48'432661.8
2016-Jun-25 19:30N 46°12' W 123°23'141435.8
2016-Jun-25 19:30N 46°10' W 123°03'0 0.0
2016-Jun-25 18:33N 46°10' W 123°03'335217.9
2016-Jun-25 18:32N 46°11' W 123°51'20576.8
2016-Jun-25 18:30N 46°12' W 123°23'431286.4
2016-Jun-25 18:28N 45°37' W 122°48'5659.8
2016-Jun-25 17:32N 46°11' W 123°51'33764.4
2016-Jun-25 17:30N 46°10' W 123°03'351489.8
2016-Jun-25 17:28N 45°37' W 122°48'3537.5
2016-Jun-25 16:33N 46°10' W 123°03'335714.9
2016-Jun-25 16:32N 46°11' W 123°51'563040.8
2016-Jun-25 16:31N 45°37' W 122°48'3535.6
2016-Jun-25 15:33N 46°10' W 123°03'336316.5
2016-Jun-25 15:32N 46°11' W 123°51'56829.4
2016-Jun-25 15:28N 45°37' W 122°48'5659.8
2016-Jun-25 14:32N 46°11' W 123°51'563087.8
2016-Jun-25 14:31N 45°37' W 122°48'351360.2
2016-Jun-25 14:30N 46°10' W 123°03'1414.8
2016-Jun-25 13:33N 46°12' W 123°23'141570.3
2016-Jun-25 13:33N 46°10' W 123°03'336316.5
2016-Jun-25 13:33N 46°11' W 123°51'56806.0
2016-Jun-25 13:28N 45°37' W 122°48'4346.8
2016-Jun-25 12:33N 46°12' W 123°23'141322.4
2016-Jun-25 12:33N 46°10' W 123°03'335000.6
2016-Jun-25 12:32N 46°11' W 123°51'563136.0
2016-Jun-25 12:31N 45°37' W 122°48'3535.6
2016-Jun-25 11:33N 46°10' W 123°03'33609.2
2016-Jun-25 11:29N 46°11' W 123°51'562995.6
2016-Jun-25 11:28N 45°37' W 122°48'43117.1
2016-Jun-25 11:06N 46°12' W 123°23'1424.9
2016-Jun-25 10:33N 46°10' W 123°03'337059.6
2016-Jun-25 10:32N 46°11' W 123°51'563087.8
2016-Jun-25 10:31N 45°37' W 122°48'43370.2
2016-Jun-25 10:24N 46°12' W 123°23'1416.2
2016-Jun-25 09:33N 46°10' W 123°03'337059.6
2016-Jun-25 09:33N 46°11' W 123°51'563087.8
2016-Jun-25 09:31N 45°37' W 122°48'0 0.0
2016-Jun-25 08:33N 45°37' W 122°48'3520860.5
2016-Jun-25 08:33N 46°10' W 123°03'338572.3
2016-Jun-25 08:33N 46°11' W 123°51'0 0.0
2016-Jun-25 07:32N 46°11' W 123°51'56595.6
2016-Jun-25 07:27N 45°37' W 122°48'35680.2
2016-Jun-25 07:24N 46°10' W 123°03'3541.0
2016-Jun-25 06:33N 45°37' W 122°48'3515645.4
2016-Jun-25 06:33N 46°10' W 123°03'337500.8
2016-Jun-25 06:32N 46°11' W 123°51'5656.1
2016-Jun-25 05:33N 45°37' W 122°48'5610563.5
2016-Jun-25 05:33N 46°11' W 123°51'33228.6
2016-Jun-25 05:24N 46°10' W 123°03'0 0.0
2016-Jun-25 04:33N 46°10' W 123°03'338000.8
2016-Jun-25 04:33N 46°11' W 123°51'56593.8
2016-Jun-25 04:27N 45°37' W 122°48'0 0.0
2016-Jun-25 03:33N 45°37' W 122°48'5613380.4
2016-Jun-25 03:33N 46°11' W 123°51'33226.9
2016-Jun-25 03:24N 46°10' W 123°03'3540.9
2016-Jun-25 02:33N 45°37' W 122°48'5611150.3
2016-Jun-25 02:33N 46°11' W 123°51'33731.8
2016-Jun-25 02:30N 46°10' W 123°03'3536.7
2016-Jun-25 01:33N 45°37' W 122°48'3513904.7
2016-Jun-25 01:33N 46°10' W 123°03'3310001.1
2016-Jun-25 01:33N 46°11' W 123°51'2044.8
2016-Jun-25 01:06N 46°12' W 123°23'0 0.0
2016-Jun-25 00:33N 46°12' W 123°23'141225.5
2016-Jun-25 00:33N 46°10' W 123°03'3313334.7
2016-Jun-25 00:33N 46°11' W 123°51'56384.5
2016-Jun-25 00:24N 45°37' W 122°48'0 0.0
2016-Jun-24 23:33N 45°37' W 122°48'5610563.5
2016-Jun-24 23:33N 46°11' W 123°51'33346.9
2016-Jun-24 23:27N 46°10' W 123°03'1458.2
2016-Jun-24 23:12N 46°12' W 123°23'1421.1
2016-Jun-24 22:33N 46°10' W 123°03'3310910.2
2016-Jun-24 22:33N 46°11' W 123°51'561254.4
2016-Jun-24 22:30N 45°37' W 122°48'43470.6
2016-Jun-24 22:24N 46°12' W 123°23'2022.6
2016-Jun-24 21:33N 46°11' W 123°51'20525.1
2016-Jun-24 21:30N 46°12' W 123°23'43742.2
2016-Jun-24 21:27N 45°37' W 122°48'35672.9
2016-Jun-24 21:24N 46°10' W 123°03'3540.9
2016-Jun-24 20:33N 45°37' W 122°48'3562581.6
2016-Jun-24 20:33N 46°10' W 123°03'339231.7
2016-Jun-24 20:33N 46°11' W 123°51'0 0.0
2016-Jun-24 19:33N 46°11' W 123°51'20533.1
2016-Jun-24 19:30N 46°12' W 123°23'434824.0
2016-Jun-24 19:30N 45°37' W 122°48'3520860.5
2016-Jun-24 19:30N 46°10' W 123°03'0 0.0
2016-Jun-24 18:33N 46°10' W 123°03'3562571.3
2016-Jun-24 18:33N 45°37' W 122°48'5615438.9
2016-Jun-24 18:33N 46°11' W 123°51'20525.1
2016-Jun-24 18:30N 46°12' W 123°23'4344.7
2016-Jun-24 17:33N 45°37' W 122°48'5615437.9
2016-Jun-24 17:33N 46°11' W 123°51'20521.2
2016-Jun-24 17:30N 46°12' W 123°23'1486.9
2016-Jun-24 17:21N 46°10' W 123°03'0 0.0
2016-Jun-24 16:33N 46°10' W 123°03'3312001.3
2016-Jun-24 16:33N 46°11' W 123°51'20545.5
2016-Jun-24 16:30N 46°12' W 123°23'43721.3
2016-Jun-24 16:27N 45°37' W 122°48'0 0.0
2016-Jun-24 15:33N 45°37' W 122°48'5611149.6
2016-Jun-24 15:33N 46°11' W 123°51'33706.0
2016-Jun-24 15:30N 46°10' W 123°03'14155.1
2016-Jun-24 15:24N 46°12' W 123°23'1416.2
2016-Jun-24 14:33N 46°10' W 123°03'3310910.3
2016-Jun-24 14:33N 46°11' W 123°51'56581.8
2016-Jun-24 14:27N 45°37' W 122°48'0 0.0
2016-Jun-24 13:33N 45°37' W 122°48'561039.9
2016-Jun-24 13:30N 46°11' W 123°51'33681.9
2016-Jun-24 13:27N 46°10' W 123°03'14155.6
2016-Jun-24 13:21N 46°12' W 123°23'4353.0
2016-Jun-24 12:33N 45°37' W 122°48'5633450.9
2016-Jun-24 12:33N 46°11' W 123°51'20499.0
2016-Jun-24 12:30N 46°12' W 123°23'141395.7
2016-Jun-24 12:30N 46°10' W 123°03'0 0.0
2016-Jun-24 11:33N 46°10' W 123°03'3320002.1
2016-Jun-24 11:33N 46°11' W 123°51'56573.4
2016-Jun-24 11:27N 45°37' W 122°48'43303.3
2016-Jun-24 11:18N 46°12' W 123°23'4356.6
2016-Jun-24 10:33N 45°37' W 122°48'5615438.9
2016-Jun-24 10:33N 46°11' W 123°51'33693.7
2016-Jun-24 10:30N 46°10' W 123°03'14344.2
2016-Jun-24 10:27N 46°12' W 123°23'4347.2
2016-Jun-24 09:33N 45°37' W 122°48'3515642.8
2016-Jun-24 09:33N 46°10' W 123°03'3340004.5
2016-Jun-24 09:33N 46°11' W 123°51'20521.2
2016-Jun-24 09:30N 46°12' W 123°23'4344.7
2016-Jun-24 08:33N 45°37' W 122°48'5616724.4
2016-Jun-24 08:33N 46°11' W 123°51'33697.7
2016-Jun-24 08:30N 46°10' W 123°03'14155.1
2016-Jun-24 08:24N 46°12' W 123°23'4349.9
2016-Jun-24 07:33N 45°37' W 122°48'5622300.6
2016-Jun-24 07:33N 46°11' W 123°51'20499.0
2016-Jun-24 07:30N 46°12' W 123°23'141358.0
2016-Jun-24 07:30N 46°10' W 123°03'3511.8
2016-Jun-24 04:33N 45°37' W 122°48'5620070.6
2016-Jun-24 04:33N 46°11' W 123°51'20537.1
2016-Jun-24 04:31N 46°12' W 123°23'14226.4
2016-Jun-24 04:27N 46°10' W 123°03'3538.6
2016-Jun-24 03:33N 45°37' W 122°48'3541714.2
2016-Jun-24 03:33N 46°10' W 123°03'3360006.7
2016-Jun-24 03:33N 46°11' W 123°51'20140.4
2016-Jun-24 03:24N 46°12' W 123°23'2021.5
2016-Jun-24 02:30N 46°11' W 123°51'56557.5
2016-Jun-24 02:24N 45°37' W 122°48'35342.9
2016-Jun-24 02:18N 46°10' W 123°03'1473.7
2016-Jun-24 02:06N 46°12' W 123°23'4376.7
2016-Jun-24 01:33N 45°37' W 122°48'5628672.2
2016-Jun-24 01:33N 46°11' W 123°51'33670.5
2016-Jun-24 01:30N 46°10' W 123°03'3536.6
2016-Jun-24 00:33N 45°37' W 122°48'56100352.8
2016-Jun-24 00:33N 46°11' W 123°51'33337.1
2016-Jun-24 00:27N 46°10' W 123°03'1415.6
2016-Jun-23 23:33N 46°12' W 123°23'202069.5
2016-Jun-23 23:33N 46°11' W 123°51'561140.4
2016-Jun-23 23:30N 45°37' W 122°48'35229.2
2016-Jun-23 23:21N 46°10' W 123°03'1417.7
2016-Jun-23 22:33N 46°12' W 123°23'434979.6
2016-Jun-23 22:33N 45°37' W 122°48'3562581.6
2016-Jun-23 22:33N 46°10' W 123°03'33120012.6
2016-Jun-23 22:33N 46°11' W 123°51'5655.8
2016-Jun-23 21:33N 45°37' W 122°48'3520860.5
2016-Jun-23 21:33N 46°10' W 123°03'33681.9
2016-Jun-23 21:30N 46°11' W 123°51'0 0.0
2016-Jun-23 20:33N 46°11' W 123°51'33333.4
2016-Jun-23 20:27N 46°10' W 123°03'14348.9
2016-Jun-23 20:24N 46°12' W 123°23'435323.0
2016-Jun-23 20:24N 45°37' W 122°48'0 0.0
2016-Jun-23 19:33N 45°37' W 122°48'5628672.2
2016-Jun-23 19:33N 46°11' W 123°51'20495.5
2016-Jun-23 19:30N 46°12' W 123°23'2020.4
2016-Jun-23 18:33N 46°11' W 123°51'20466.0
2016-Jun-23 18:30N 46°12' W 123°23'434979.6
2016-Jun-23 18:30N 45°37' W 122°48'3525032.6
2016-Jun-23 18:30N 46°10' W 123°03'3333.4
2016-Jun-23 17:30N 46°11' W 123°51'33652.2
2016-Jun-23 17:27N 46°10' W 123°03'35711.0
2016-Jun-23 17:24N 45°37' W 122°48'43469.2
2016-Jun-23 17:18N 46°12' W 123°23'2025.8
2016-Jun-23 16:33N 46°11' W 123°51'561108.9
2016-Jun-23 16:30N 45°37' W 122°48'3525032.6
2016-Jun-23 16:30N 46°10' W 123°03'14155.6
2016-Jun-23 16:24N 46°12' W 123°23'2022.8
2016-Jun-23 15:33N 46°11' W 123°51'56372.4
2016-Jun-23 15:24N 45°37' W 122°48'35669.3
2016-Jun-23 15:21N 46°10' W 123°03'14351.4
2016-Jun-23 15:18N 46°12' W 123°23'2026.0
2016-Jun-23 14:33N 46°11' W 123°51'567719.4
2016-Jun-23 14:33N 45°37' W 122°48'3531290.8
2016-Jun-23 14:33N 46°10' W 123°03'1498.9
2016-Jun-23 14:24N 46°12' W 123°23'2022.8
2016-Jun-23 13:33N 46°11' W 123°51'56100346.2
2016-Jun-23 13:33N 45°37' W 122°48'3515645.4
2016-Jun-23 13:33N 46°10' W 123°03'14353.8
2016-Jun-23 13:30N 46°12' W 123°23'0 0.0
2016-Jun-23 12:33N 46°12' W 123°23'434677.8
2016-Jun-23 12:33N 45°37' W 122°48'3541721.0
2016-Jun-23 12:33N 46°10' W 123°03'33689.7
2016-Jun-23 12:30N 46°11' W 123°51'0 0.0
2016-Jun-23 11:33N 46°11' W 123°51'3320002.1
2016-Jun-23 11:33N 46°10' W 123°03'35711.2
2016-Jun-23 11:30N 45°37' W 122°48'43306.9
2016-Jun-23 11:21N 46°12' W 123°23'4352.9
2016-Jun-23 10:33N 45°37' W 122°48'3520860.5
2016-Jun-23 10:33N 46°10' W 123°03'33689.7
2016-Jun-23 10:30N 46°11' W 123°51'0 0.0
2016-Jun-23 09:33N 46°11' W 123°51'56200705.6
2016-Jun-23 09:33N 45°37' W 122°48'35680.2
2016-Jun-23 09:30N 46°10' W 123°03'3335.1
2016-Jun-23 08:33N 46°11' W 123°51'33641.8
2016-Jun-23 08:30N 46°10' W 123°03'1473.4
2016-Jun-23 08:18N 46°12' W 123°23'436432.7
2016-Jun-23 08:18N 45°37' W 122°48'5674.3
2016-Jun-23 07:33N 46°11' W 123°51'33635.0
2016-Jun-23 07:30N 46°10' W 123°03'35711.2
2016-Jun-23 07:27N 45°37' W 122°48'431036.0
2016-Jun-23 07:24N 46°12' W 123°23'4323.1
2016-Jun-23 05:33N 45°37' W 122°48'3531285.6
2016-Jun-23 05:33N 46°10' W 123°03'14351.4
2016-Jun-23 05:30N 46°12' W 123°23'20346.6
2016-Jun-23 05:27N 46°11' W 123°51'0 0.0
2016-Jun-23 04:33N 46°11' W 123°51'33641.8
2016-Jun-23 04:30N 46°10' W 123°03'35707.0
2016-Jun-23 04:27N 45°37' W 122°48'43309.4
2016-Jun-23 04:19N 46°12' W 123°23'2025.7
2016-Jun-23 03:33N 46°11' W 123°51'5625088.2
2016-Jun-23 03:33N 45°37' W 122°48'431064.6
2016-Jun-23 03:30N 46°12' W 123°23'141322.3
2016-Jun-23 03:30N 46°10' W 123°03'3335.2
2016-Jun-23 02:33N 46°11' W 123°51'5628672.2
2016-Jun-23 02:33N 45°37' W 122°48'351251.4
2016-Jun-23 02:31N 46°10' W 123°03'14122.6
2016-Jun-23 02:24N 46°12' W 123°23'2022.8
2016-Jun-23 01:33N 46°11' W 123°51'5640141.1
2016-Jun-23 01:33N 45°37' W 122°48'43303.3
2016-Jun-23 01:24N 46°12' W 123°23'14398.8
2016-Jun-23 01:22N 46°10' W 123°03'3340.6
2016-Jun-23 00:33N 46°11' W 123°51'5628672.2
2016-Jun-23 00:33N 45°37' W 122°48'35446.9
2016-Jun-23 00:28N 46°10' W 123°03'3336.2
2016-Jun-22 23:33N 46°11' W 123°51'5666901.9
2016-Jun-22 23:33N 45°37' W 122°48'35445.3
2016-Jun-22 23:28N 46°10' W 123°03'1444.5
2016-Jun-22 23:09N 46°12' W 123°23'2032.2
2016-Jun-22 22:33N 46°11' W 123°51'33418.2
2016-Jun-22 22:28N 46°10' W 123°03'351564.5
2016-Jun-22 22:27N 45°37' W 122°48'5662.1
2016-Jun-22 21:33N 46°11' W 123°51'5625088.2
2016-Jun-22 21:33N 45°37' W 122°48'351303.8
2016-Jun-22 21:31N 46°10' W 123°03'14948.1
2016-Jun-22 21:30N 46°12' W 123°23'2020.5
2016-Jun-22 20:33N 46°11' W 123°51'5615438.9
2016-Jun-22 20:33N 45°37' W 122°48'431050.1
2016-Jun-22 20:30N 46°12' W 123°23'14386.5
2016-Jun-22 20:28N 46°10' W 123°03'3336.3
2016-Jun-22 19:33N 46°11' W 123°51'331101.0
2016-Jun-22 19:31N 46°10' W 123°03'14985.2
2016-Jun-22 19:30N 46°12' W 123°23'43731.6
2016-Jun-22 19:27N 45°37' W 122°48'5662.1
2016-Jun-22 18:33N 46°11' W 123°51'5622300.6
2016-Jun-22 18:33N 45°37' W 122°48'35153.6
2016-Jun-22 18:19N 46°10' W 123°03'14930.5
2016-Jun-22 18:18N 46°12' W 123°23'2025.9
2016-Jun-22 17:33N 46°11' W 123°51'20437.0
2016-Jun-22 17:30N 46°12' W 123°23'14386.5
2016-Jun-22 17:28N 46°10' W 123°03'351490.0
2016-Jun-22 17:27N 45°37' W 122°48'4345.6
2016-Jun-22 16:30N 46°12' W 123°23'204397.7
2016-Jun-22 16:30N 46°11' W 123°51'331101.0
2016-Jun-22 16:28N 46°10' W 123°03'351472.5
2016-Jun-22 16:27N 45°37' W 122°48'5662.2
2016-Jun-22 15:33N 46°11' W 123°51'331121.6
2016-Jun-22 15:31N 46°10' W 123°03'14930.5
2016-Jun-22 15:30N 46°12' W 123°23'43205.3
2016-Jun-22 15:18N 45°37' W 122°48'5674.8
2016-Jun-22 14:33N 46°11' W 123°51'5618246.0
2016-Jun-22 14:33N 45°37' W 122°48'35443.8
2016-Jun-22 14:28N 46°10' W 123°03'3537.7
2016-Jun-22 13:33N 45°37' W 122°48'561216.4
2016-Jun-22 13:30N 46°11' W 123°51'331071.5
2016-Jun-22 13:28N 46°10' W 123°03'3336.3
2016-Jun-22 12:33N 46°11' W 123°51'5615438.9
2016-Jun-22 12:33N 45°37' W 122°48'35450.2
2016-Jun-22 12:28N 46°10' W 123°03'14966.3
2016-Jun-22 12:27N 46°12' W 123°23'2021.6
2016-Jun-22 11:33N 46°11' W 123°51'331091.0
2016-Jun-22 11:31N 46°10' W 123°03'35472.3
2016-Jun-22 11:27N 45°37' W 122°48'43225.4
2016-Jun-22 11:15N 46°12' W 123°23'0 0.0
2016-Jun-22 10:33N 46°12' W 123°23'204690.9
2016-Jun-22 10:33N 46°11' W 123°51'5610563.5
2016-Jun-22 10:33N 45°37' W 122°48'351290.3
2016-Jun-22 10:31N 46°10' W 123°03'0 0.0
2016-Jun-22 09:31N 46°10' W 123°03'14985.2
2016-Jun-22 09:30N 46°12' W 123°23'205026.0
2016-Jun-22 09:30N 46°11' W 123°51'56531.0
2016-Jun-22 09:24N 45°37' W 122°48'5666.0
2016-Jun-22 08:33N 46°11' W 123°51'5613380.4
2016-Jun-22 08:33N 45°37' W 122°48'35447.0
2016-Jun-22 08:28N 46°10' W 123°03'1484.9
2016-Jun-22 08:18N 46°12' W 123°23'2025.9
2016-Jun-22 07:33N 46°11' W 123°51'5612544.1
2016-Jun-22 07:33N 45°37' W 122°48'35450.2
2016-Jun-22 07:28N 46°10' W 123°03'3336.3
2016-Jun-22 06:33N 46°11' W 123°51'5610035.3
2016-Jun-22 06:33N 45°37' W 122°48'351360.5
2016-Jun-22 06:31N 46°10' W 123°03'1465.1
2016-Jun-22 06:18N 46°12' W 123°23'2025.9
2016-Jun-22 05:33N 46°11' W 123°51'569557.4
2016-Jun-22 05:33N 45°37' W 122°48'431050.1
2016-Jun-22 05:30N 46°12' W 123°23'2020.5
2016-Jun-22 04:33N 46°11' W 123°51'33406.8
2016-Jun-22 04:28N 46°10' W 123°03'351490.0
2016-Jun-22 04:27N 45°37' W 122°48'5662.4
2016-Jun-22 03:33N 46°11' W 123°51'5610035.3
2016-Jun-22 03:33N 45°37' W 122°48'35272.0
2016-Jun-22 03:25N 46°10' W 123°03'3338.4
2016-Jun-22 02:33N 46°11' W 123°51'5612544.1
2016-Jun-22 02:33N 45°37' W 122°48'431029.1
2016-Jun-22 02:30N 46°12' W 123°23'1475.2
2016-Jun-22 02:19N 46°10' W 123°03'3545.0
2016-Jun-22 01:33N 45°37' W 122°48'561262.3
2016-Jun-22 01:30N 46°11' W 123°51'33181.8
2016-Jun-22 01:19N 46°10' W 123°03'3343.4
2016-Jun-22 00:33N 46°11' W 123°51'331043.6
2016-Jun-22 00:31N 46°10' W 123°03'35474.0
2016-Jun-22 00:27N 45°37' W 122°48'5662.3
2016-Jun-21 23:33N 46°11' W 123°51'5611150.3
2016-Jun-21 23:33N 45°37' W 122°48'35196.2
2016-Jun-21 23:22N 46°10' W 123°03'3340.8
2016-Jun-21 22:33N 46°11' W 123°51'5611806.2
2016-Jun-21 22:33N 45°37' W 122°48'351251.6
2016-Jun-21 22:31N 46°10' W 123°03'3334.5
2016-Jun-21 21:33N 46°11' W 123°51'33983.7
2016-Jun-21 21:31N 46°10' W 123°03'351507.7
2016-Jun-21 21:30N 45°37' W 122°48'5659.1
2016-Jun-21 20:33N 46°11' W 123°51'33400.0
2016-Jun-21 20:28N 46°10' W 123°03'351526.1
2016-Jun-21 20:27N 45°37' W 122°48'0 0.0
2016-Jun-21 19:33N 45°37' W 122°48'351317.5
2016-Jun-21 19:31N 46°10' W 123°03'332000.2
2016-Jun-21 19:30N 46°11' W 123°51'0 0.0
2016-Jun-21 18:33N 46°11' W 123°51'567719.4
2016-Jun-21 18:33N 45°37' W 122°48'431057.3
2016-Jun-21 18:30N 46°12' W 123°23'14386.5
2016-Jun-21 18:28N 46°10' W 123°03'3336.4
2016-Jun-21 17:33N 46°11' W 123°51'33401.4
2016-Jun-21 17:28N 46°10' W 123°03'35200.9
2016-Jun-21 17:18N 45°37' W 122°48'5675.0
2016-Jun-21 16:33N 46°11' W 123°51'568726.3
2016-Jun-21 16:33N 45°37' W 122°48'35451.8
2016-Jun-21 16:28N 46°10' W 123°03'3336.4
2016-Jun-21 15:33N 46°11' W 123°51'33967.8
2016-Jun-21 15:31N 46°10' W 123°03'3593.1
2016-Jun-21 15:09N 45°37' W 122°48'5694.1
2016-Jun-21 14:33N 46°11' W 123°51'568726.3
2016-Jun-21 14:33N 45°37' W 122°48'35425.7
2016-Jun-21 14:28N 46°10' W 123°03'3336.6
2016-Jun-21 13:33N 46°11' W 123°51'568362.7
2016-Jun-21 13:33N 45°37' W 122°48'351107.6
2016-Jun-21 13:31N 46°10' W 123°03'3334.7
2016-Jun-21 12:33N 46°11' W 123°51'568028.2
2016-Jun-21 12:33N 45°37' W 122°48'35424.2
2016-Jun-21 12:28N 46°10' W 123°03'3336.6
2016-Jun-21 11:33N 46°11' W 123°51'569557.4
2016-Jun-21 11:33N 45°37' W 122°48'351088.4
2016-Jun-21 11:31N 46°10' W 123°03'3334.7
2016-Jun-21 10:33N 46°11' W 123°51'566920.9
2016-Jun-21 10:33N 45°37' W 122°48'35436.0
2016-Jun-21 10:28N 46°10' W 123°03'1433.9
2016-Jun-21 10:03N 46°12' W 123°23'2039.1
2016-Jun-21 09:33N 46°11' W 123°51'566082.0
2016-Jun-21 09:33N 45°37' W 122°48'352607.6
2016-Jun-21 09:32N 46°10' W 123°03'1478.8
2016-Jun-21 09:21N 46°12' W 123°23'2024.4
2016-Jun-21 08:33N 46°11' W 123°51'566920.9
2016-Jun-21 08:33N 45°37' W 122°48'352275.7
2016-Jun-21 08:32N 46°10' W 123°03'3334.1
2016-Jun-21 07:33N 46°11' W 123°51'331250.1
2016-Jun-21 07:32N 46°10' W 123°03'351097.9
2016-Jun-21 07:30N 45°37' W 122°48'5659.2
2016-Jun-21 06:33N 46°11' W 123°51'566690.2
2016-Jun-21 06:33N 45°37' W 122°48'5628.0
2016-Jun-21 04:33N 46°11' W 123°51'567168.1
2016-Jun-21 04:33N 45°37' W 122°48'351814.0
2016-Jun-21 04:32N 46°10' W 123°03'3334.3
2016-Jun-21 03:33N 46°11' W 123°51'567168.1
2016-Jun-21 03:33N 45°37' W 122°48'35158.2
2016-Jun-21 03:20N 46°10' W 123°03'3343.2
2016-Jun-21 02:33N 46°11' W 123°51'566272.1
2016-Jun-21 02:33N 45°37' W 122°48'35293.8
2016-Jun-21 02:26N 46°10' W 123°03'3338.2
2016-Jun-21 01:33N 46°11' W 123°51'331154.0
2016-Jun-21 01:32N 46°10' W 123°03'35265.2
2016-Jun-21 01:24N 45°37' W 122°48'5666.3
2016-Jun-21 00:33N 46°11' W 123°51'566272.1
2016-Jun-21 00:33N 45°37' W 122°48'351896.1
2016-Jun-21 00:32N 46°10' W 123°03'3334.3
2016-Jun-20 23:33N 46°11' W 123°51'566474.4
2016-Jun-20 23:33N 45°37' W 122°48'351925.3
2016-Jun-20 23:32N 46°10' W 123°03'1462.5
2016-Jun-20 23:18N 46°12' W 123°23'2026.1
2016-Jun-20 22:33N 46°11' W 123°51'20395.3
2016-Jun-20 22:30N 46°12' W 123°23'43714.7
2016-Jun-20 22:27N 45°37' W 122°48'351955.7
2016-Jun-20 22:26N 46°10' W 123°03'3338.2
2016-Jun-20 21:33N 46°11' W 123°51'56512.0
2016-Jun-20 21:27N 45°37' W 122°48'35292.4
2016-Jun-20 21:20N 46°10' W 123°03'3343.2
2016-Jun-20 20:33N 46°11' W 123°51'56937.8
2016-Jun-20 20:30N 45°37' W 122°48'35292.4
2016-Jun-20 20:23N 46°10' W 123°03'3340.5
2016-Jun-20 19:33N 46°11' W 123°51'565903.1
2016-Jun-20 19:33N 45°37' W 122°48'43303.9
2016-Jun-20 19:24N 46°12' W 123°23'14109.7
2016-Jun-20 19:17N 46°10' W 123°03'3343.2
2016-Jun-20 18:30N 46°11' W 123°51'56937.9
2016-Jun-20 18:27N 45°37' W 122°48'351840.6
2016-Jun-20 18:26N 46°10' W 123°03'14620.3
2016-Jun-20 18:24N 46°12' W 123°23'2023.0
2016-Jun-20 17:33N 46°11' W 123°51'331165.2
2016-Jun-20 17:32N 46°10' W 123°03'35425.7
2016-Jun-20 17:27N 45°37' W 122°48'43177.6
2016-Jun-20 17:12N 46°12' W 123°23'2030.1
2016-Jun-20 16:33N 46°11' W 123°51'331188.2
2016-Jun-20 16:32N 46°10' W 123°03'351079.0
2016-Jun-20 16:30N 45°37' W 122°48'5659.3
2016-Jun-20 15:33N 46°11' W 123°51'565903.1
2016-Jun-20 15:33N 45°37' W 122°48'351788.0
2016-Jun-20 15:32N 46°10' W 123°03'14620.3
2016-Jun-20 15:30N 46°12' W 123°23'2020.6
2016-Jun-20 14:33N 46°11' W 123°51'565734.4
2016-Jun-20 14:33N 45°37' W 122°48'351762.6
2016-Jun-20 14:32N 46°10' W 123°03'3334.4
2016-Jun-20 13:34N 46°11' W 123°51'331154.0
2016-Jun-20 13:32N 46°10' W 123°03'35264.1
2016-Jun-20 13:24N 45°37' W 122°48'5666.4
2016-Jun-20 12:34N 46°11' W 123°51'565017.6
2016-Jun-20 12:33N 45°37' W 122°48'351840.6
2016-Jun-20 12:32N 46°10' W 123°03'14195.5
2016-Jun-20 12:27N 46°12' W 123°23'2021.7
2016-Jun-20 11:34N 46°11' W 123°51'337059.6
2016-Jun-20 11:33N 46°10' W 123°03'35326.7
2016-Jun-20 11:27N 45°37' W 122°48'43109.6
2016-Jun-20 11:03N 46°12' W 123°23'2039.3
2016-Jun-20 10:34N 46°11' W 123°51'338000.9
2016-Jun-20 10:33N 46°10' W 123°03'35324.2
2016-Jun-20 10:27N 45°37' W 122°48'43476.4
2016-Jun-20 10:21N 46°12' W 123°23'2024.5
2016-Jun-20 09:34N 46°11' W 123°51'565017.6
2016-Jun-20 09:33N 45°37' W 122°48'35802.3
2016-Jun-20 09:30N 46°10' W 123°03'14297.3
2016-Jun-20 09:27N 46°12' W 123°23'2021.8
2016-Jun-20 08:34N 46°11' W 123°51'2011727.3
2016-Jun-20 08:33N 46°12' W 123°23'434677.8
2016-Jun-20 08:33N 45°37' W 122°48'35792.0
2016-Jun-20 08:30N 46°10' W 123°03'0 0.0
2016-Jun-20 07:33N 46°10' W 123°03'33750.1
2016-Jun-20 07:31N 46°11' W 123°51'205026.0
2016-Jun-20 07:30N 46°12' W 123°23'43394.8
2016-Jun-20 07:24N 45°37' W 122°48'4351.0
2016-Jun-20 06:33N 46°12' W 123°23'14512.7
2016-Jun-20 06:32N 46°10' W 123°03'331600.2
2016-Jun-20 06:31N 46°11' W 123°51'56904.1
2016-Jun-20 06:27N 45°37' W 122°48'5659.5
2016-Jun-20 05:31N 46°11' W 123°51'564460.1
2016-Jun-20 05:30N 45°37' W 122°48'351840.3
2016-Jun-20 05:29N 46°10' W 123°03'3334.4
2016-Jun-20 04:31N 46°11' W 123°51'564270.3
2016-Jun-20 04:30N 45°37' W 122°48'351840.6
2016-Jun-20 04:29N 46°10' W 123°03'1451.3
2016-Jun-20 04:12N 46°12' W 123°23'4365.2
2016-Jun-20 03:33N 45°37' W 122°48'351714.6
2016-Jun-20 03:32N 46°10' W 123°03'331791.2
2016-Jun-20 03:31N 46°11' W 123°51'205863.6
2016-Jun-20 03:30N 46°12' W 123°23'4344.7
2016-Jun-20 02:33N 45°37' W 122°48'561475.8
2016-Jun-20 02:31N 46°11' W 123°51'205412.6
2016-Jun-20 02:30N 46°12' W 123°23'14507.5
2016-Jun-20 02:29N 46°10' W 123°03'3334.5
2016-Jun-20 01:31N 46°11' W 123°51'564096.0
2016-Jun-20 01:30N 45°37' W 122°48'35205.9
2016-Jun-20 01:20N 46°10' W 123°03'3544.5
2016-Jun-20 00:33N 45°37' W 122°48'351986.4
2016-Jun-20 00:32N 46°10' W 123°03'331764.9
2016-Jun-20 00:31N 46°11' W 123°51'0 0.0
2016-Jun-19 23:31N 46°11' W 123°51'56896.0
2016-Jun-19 23:27N 45°37' W 122°48'351840.3
2016-Jun-19 23:26N 46°10' W 123°03'3336.3
2016-Jun-19 22:31N 46°11' W 123°51'564460.1
2016-Jun-19 22:30N 45°37' W 122°48'351762.9
2016-Jun-19 22:29N 46°10' W 123°03'1433.1
2016-Jun-19 22:03N 46°12' W 123°23'4384.3
2016-Jun-19 21:33N 45°37' W 122°48'351787.8
2016-Jun-19 21:32N 46°10' W 123°03'331875.2
2016-Jun-19 21:31N 46°11' W 123°51'5657.9
2016-Jun-19 20:33N 45°37' W 122°48'561568.0
2016-Jun-19 20:31N 46°11' W 123°51'331008.5
2016-Jun-19 20:29N 46°10' W 123°03'3537.3
2016-Jun-19 19:33N 45°37' W 122°48'561555.9
2016-Jun-19 19:31N 46°11' W 123°51'331025.7
2016-Jun-19 19:29N 46°10' W 123°03'1480.9
2016-Jun-19 19:18N 46°12' W 123°23'1418.0
2016-Jun-19 18:32N 46°10' W 123°03'331818.4
2016-Jun-19 18:31N 46°11' W 123°51'56888.1
2016-Jun-19 18:27N 45°37' W 122°48'43177.6
2016-Jun-19 18:12N 46°12' W 123°23'4365.0
2016-Jun-19 17:33N 45°37' W 122°48'351986.4
2016-Jun-19 17:32N 46°10' W 123°03'331818.4
2016-Jun-19 17:31N 46°11' W 123°51'205026.0
2016-Jun-19 17:30N 46°12' W 123°23'4344.7
2016-Jun-19 16:33N 45°37' W 122°48'561555.9
2016-Jun-19 16:31N 46°11' W 123°51'331034.6
2016-Jun-19 16:29N 46°10' W 123°03'14191.8
2016-Jun-19 16:24N 46°12' W 123°23'4350.0
2016-Jun-19 15:33N 45°37' W 122°48'351788.0
2016-Jun-19 15:32N 46°10' W 123°03'331967.4
2016-Jun-19 15:31N 46°11' W 123°51'2095.2
2016-Jun-19 15:18N 46°12' W 123°23'4356.5
2016-Jun-19 14:33N 45°37' W 122°48'561555.9
2016-Jun-19 14:31N 46°11' W 123°51'331043.6
2016-Jun-19 14:29N 46°10' W 123°03'14191.1
2016-Jun-19 14:24N 46°12' W 123°23'4349.9
2016-Jun-19 13:33N 45°37' W 122°48'561605.6
2016-Jun-19 13:31N 46°11' W 123°51'33991.8
2016-Jun-19 13:29N 46°10' W 123°03'3537.3
2016-Jun-19 12:33N 45°37' W 122°48'351814.0
2016-Jun-19 12:32N 46°10' W 123°03'332143.1
2016-Jun-19 12:31N 46°11' W 123°51'2020.4
2016-Jun-19 11:33N 46°12' W 123°23'435145.6
2016-Jun-19 11:33N 45°37' W 122°48'561543.9
2016-Jun-19 11:31N 46°11' W 123°51'331017.1
2016-Jun-19 11:29N 46°10' W 123°03'1415.1
2016-Jun-19 10:33N 46°12' W 123°23'20445.3
2016-Jun-19 10:31N 46°11' W 123°51'563716.8
2016-Jun-19 10:30N 45°37' W 122°48'351925.3
2016-Jun-19 10:29N 46°10' W 123°03'1415.1
2016-Jun-19 09:33N 46°12' W 123°23'435513.1
2016-Jun-19 09:33N 45°37' W 122°48'561568.0
2016-Jun-19 09:31N 46°11' W 123°51'33991.8
2016-Jun-19 09:29N 46°10' W 123°03'3537.3
2016-Jun-19 08:33N 45°37' W 122°48'351896.4
2016-Jun-19 08:32N 46°10' W 123°03'332105.5
2016-Jun-19 08:31N 46°11' W 123°51'202814.6
2016-Jun-19 08:30N 46°12' W 123°23'4344.7
2016-Jun-19 07:33N 45°37' W 122°48'351896.4
2016-Jun-19 07:32N 46°10' W 123°03'331967.4
2016-Jun-19 07:31N 46°11' W 123°51'20348.3
2016-Jun-19 07:27N 46°12' W 123°23'0 0.0
2016-Jun-19 06:33N 46°12' W 123°23'434410.5
2016-Jun-19 06:33N 45°37' W 122°48'351814.0
2016-Jun-19 06:32N 46°10' W 123°03'332307.9
2016-Jun-19 06:31N 46°11' W 123°51'3333.8
2016-Jun-19 05:32N 46°10' W 123°03'332264.4
2016-Jun-19 05:31N 46°11' W 123°51'563460.4
2016-Jun-19 05:30N 45°37' W 122°48'0 0.0
2016-Jun-19 04:33N 45°37' W 122°48'561686.6
2016-Jun-19 04:31N 46°11' W 123°51'33945.0
2016-Jun-19 04:29N 46°10' W 123°03'1433.1
2016-Jun-19 04:03N 46°12' W 123°23'2036.0
2016-Jun-19 03:31N 46°11' W 123°51'202426.3
2016-Jun-19 03:30N 46°12' W 123°23'435323.0
2016-Jun-19 03:30N 45°37' W 122°48'351840.6
2016-Jun-19 03:29N 46°10' W 123°03'3537.3
2016-Jun-19 02:33N 45°37' W 122°48'351813.7
2016-Jun-19 02:32N 46°10' W 123°03'332400.3
2016-Jun-19 02:31N 46°11' W 123°51'202426.3
2016-Jun-19 02:30N 46°12' W 123°23'1414.3
2016-Jun-19 01:32N 46°10' W 123°03'332353.2
2016-Jun-19 01:31N 46°11' W 123°51'56836.3
2016-Jun-19 01:27N 45°37' W 122°48'431072.0
2016-Jun-19 01:24N 46°12' W 123°23'4349.9
2016-Jun-19 00:33N 45°37' W 122°48'351896.1
2016-Jun-19 00:32N 46°10' W 123°03'332449.3
2016-Jun-19 00:31N 46°11' W 123°51'2093.3
2016-Jun-19 00:18N 46°12' W 123°23'4356.5
2016-Jun-18 23:33N 45°37' W 122°48'351896.1
2016-Jun-18 23:32N 46°10' W 123°03'332222.5
2016-Jun-18 23:31N 46°11' W 123°51'20341.6
2016-Jun-18 23:27N 46°12' W 123°23'4347.1
2016-Jun-18 22:33N 45°37' W 122°48'351925.6
2016-Jun-18 22:32N 46°10' W 123°03'332105.5
2016-Jun-18 22:31N 46°11' W 123°51'202606.1
2016-Jun-18 22:30N 46°12' W 123°23'4344.7
2016-Jun-18 21:33N 45°37' W 122°48'351925.3
2016-Jun-18 21:32N 46°10' W 123°03'332308.0
2016-Jun-18 21:31N 46°11' W 123°51'20180.4
2016-Jun-18 21:24N 46°12' W 123°23'4349.9
2016-Jun-18 20:33N 45°37' W 122°48'561686.6
2016-Jun-18 20:31N 46°11' W 123°51'33930.3
2016-Jun-18 20:29N 46°10' W 123°03'14114.5
2016-Jun-18 20:21N 46°12' W 123°23'4353.0
2016-Jun-18 19:33N 45°37' W 122°48'351868.1
2016-Jun-18 19:32N 46°10' W 123°03'332307.9
2016-Jun-18 19:31N 46°11' W 123°51'3333.8
2016-Jun-18 18:32N 46°10' W 123°03'332307.9
2016-Jun-18 18:31N 46°11' W 123°51'563087.8
2016-Jun-18 18:30N 45°37' W 122°48'0 0.0
2016-Jun-18 17:33N 45°37' W 122°48'351714.6
2016-Jun-18 17:32N 46°10' W 123°03'332727.6
2016-Jun-18 17:31N 46°11' W 123°51'202069.5
2016-Jun-18 17:30N 46°12' W 123°23'4344.7
2016-Jun-18 16:33N 45°37' W 122°48'351840.6
2016-Jun-18 16:32N 46°10' W 123°03'332500.3
2016-Jun-18 16:31N 46°11' W 123°51'202198.9
2016-Jun-18 16:30N 46°12' W 123°23'4344.7
2016-Jun-18 15:33N 45°37' W 122°48'351840.6
2016-Jun-18 15:32N 46°10' W 123°03'332500.3
2016-Jun-18 15:31N 46°11' W 123°51'202269.8
2016-Jun-18 15:30N 46°12' W 123°23'4344.7
2016-Jun-18 14:33N 45°37' W 122°48'561745.3
2016-Jun-18 14:31N 46°11' W 123°51'33930.3
2016-Jun-18 14:29N 46°10' W 123°03'1437.4
2016-Jun-18 14:06N 46°12' W 123°23'4376.8
2016-Jun-18 13:33N 45°37' W 122°48'351896.1
2016-Jun-18 13:32N 46°10' W 123°03'332400.3
2016-Jun-18 13:31N 46°11' W 123°51'2093.3
2016-Jun-18 13:18N 46°12' W 123°23'  
Track history (hours):
 
Tides and Currents Weather Stations Pressure Air Temp Water Temp Dewpoint Dewpoint Depression Visibility Wind Speed Wind Dir Waves Ship Positions

Zarling

Owner: Clean Rivers Co-op, Portland, OR. More information available from US FCC via Universal Licensing System.

Last reported at 2016-Jun-28 12:34 UTC. Time now 2016-Jun-28 13:28 UTC.
Position N 46°10' W 123°03'.

Length 12 m.

Type: Pollution control. MMSI: 3699126.

Date/timePositionNaut miles runAvg speedWind from/ knotsBaromVisibWave heightAir tempDewpointWater temp
2016-Jun-28 12:34N 46°10' W 123°03'331188.2
2016-Jun-28 12:32N 46°11' W 123°51'56517.3
2016-Jun-28 12:25N 45°37' W 122°48'3540.2
2016-Jun-28 11:33N 46°10' W 123°03'331200.1
2016-Jun-28 11:32N 46°11' W 123°51'56974.3
2016-Jun-28 11:28N 45°37' W 122°48'5659.2
2016-Jun-28 10:32N 46°11' W 123°51'331463.6
2016-Jun-28 10:30N 46°10' W 123°03'35977.7
2016-Jun-28 10:28N 45°37' W 122°48'3538.0
2016-Jun-28 09:34N 46°10' W 123°03'331188.2
2016-Jun-28 09:32N 46°11' W 123°51'56974.2
2016-Jun-28 09:28N 45°37' W 122°48'5656.2
2016-Jun-28 08:29N 46°11' W 123°51'566081.6
2016-Jun-28 08:28N 45°37' W 122°48'352361.2
2016-Jun-28 08:28N 46°10' W 123°03'14273.1
2016-Jun-28 08:24N 46°12' W 123°23'1416.4
2016-Jun-28 07:34N 46°10' W 123°03'331224.6
2016-Jun-28 07:32N 46°11' W 123°51'56960.3
2016-Jun-28 07:28N 45°37' W 122°48'3538.0
2016-Jun-28 06:34N 46°10' W 123°03'35977.8
2016-Jun-28 06:31N 45°37' W 122°48'561365.3
2016-Jun-28 06:29N 46°11' W 123°51'0 0.0
2016-Jun-28 04:32N 46°11' W 123°51'56955.7
2016-Jun-28 04:28N 45°37' W 122°48'35304.5
2016-Jun-28 04:22N 46°10' W 123°03'1455.3
2016-Jun-28 04:06N 46°12' W 123°23'1425.5
2016-Jun-28 03:34N 46°10' W 123°03'148375.0
2016-Jun-28 03:33N 46°12' W 123°23'431244.9
2016-Jun-28 03:31N 45°37' W 122°48'561365.3
2016-Jun-28 03:29N 46°11' W 123°51'0 0.0
2016-Jun-28 02:32N 46°11' W 123°51'566690.2
2016-Jun-28 02:31N 45°37' W 122°48'432661.5
2016-Jun-28 02:30N 46°12' W 123°23'14290.4
2016-Jun-28 02:28N 46°10' W 123°03'3336.0
2016-Jun-28 01:32N 46°11' W 123°51'331379.5
2016-Jun-28 01:30N 46°10' W 123°03'35985.5
2016-Jun-28 01:28N 45°37' W 122°48'43257.3
2016-Jun-28 01:18N 46°12' W 123°23'1418.7
2016-Jun-28 00:34N 46°10' W 123°03'331263.3
2016-Jun-28 00:32N 46°11' W 123°51'565734.4
2016-Jun-28 00:31N 45°37' W 122°48'432661.5
2016-Jun-28 00:30N 46°12' W 123°23'2020.1
2016-Jun-27 23:32N 46°11' W 123°51'566474.4
2016-Jun-27 23:31N 45°37' W 122°48'352317.8
2016-Jun-27 23:30N 46°10' W 123°03'1446.2
2016-Jun-27 23:12N 46°12' W 123°23'1421.5
2016-Jun-27 22:34N 46°10' W 123°03'331250.1
2016-Jun-27 22:32N 46°11' W 123°51'567433.5
2016-Jun-27 22:31N 45°37' W 122°48'43196.6
2016-Jun-27 22:18N 46°12' W 123°23'1418.7
2016-Jun-27 21:33N 46°10' W 123°03'331318.8
2016-Jun-27 21:32N 46°11' W 123°51'565424.5
2016-Jun-27 21:31N 45°37' W 122°48'43369.3
2016-Jun-27 21:24N 46°12' W 123°23'1416.5
2016-Jun-27 20:34N 46°10' W 123°03'331318.8
2016-Jun-27 20:32N 46°11' W 123°51'565575.2
2016-Jun-27 20:31N 45°37' W 122°48'43102.8
2016-Jun-27 20:06N 46°12' W 123°23'2034.0
2016-Jun-27 19:32N 46°11' W 123°51'331395.5
2016-Jun-27 19:30N 46°10' W 123°03'147178.1
2016-Jun-27 19:30N 46°12' W 123°23'431286.4
2016-Jun-27 19:28N 45°37' W 122°48'0 0.0
2016-Jun-27 18:33N 45°37' W 122°48'353476.8
2016-Jun-27 18:33N 46°10' W 123°03'333158.2
2016-Jun-27 18:32N 46°11' W 123°51'20733.0
2016-Jun-27 18:30N 46°12' W 123°23'1414.7
2016-Jun-27 17:33N 46°10' W 123°03'331333.5
2016-Jun-27 17:32N 46°11' W 123°51'565575.2
2016-Jun-27 17:31N 45°37' W 122°48'43371.1
2016-Jun-27 17:24N 46°12' W 123°23'2022.5
2016-Jun-27 16:32N 46°11' W 123°51'20913.8
2016-Jun-27 16:31N 46°12' W 123°23'14361.5
2016-Jun-27 16:29N 46°10' W 123°03'355214.3
2016-Jun-27 16:28N 45°37' W 122°48'3537.5
2016-Jun-27 15:33N 46°10' W 123°03'332667.0
2016-Jun-27 15:32N 46°11' W 123°51'20198.2
2016-Jun-27 15:26N 46°12' W 123°23'43698.5
2016-Jun-27 15:22N 45°37' W 122°48'4352.5
2016-Jun-27 14:33N 46°12' W 123°23'141225.6
2016-Jun-27 14:33N 46°10' W 123°03'332667.0
2016-Jun-27 14:32N 46°11' W 123°51'56924.9
2016-Jun-27 14:28N 45°37' W 122°48'0 0.0
2016-Jun-27 13:31N 45°37' W 122°48'432661.5
2016-Jun-27 13:30N 46°12' W 123°23'141256.2
2016-Jun-27 13:30N 46°10' W 123°03'332791.0
2016-Jun-27 13:29N 46°11' W 123°51'3335.6
2016-Jun-27 12:33N 46°10' W 123°03'332791.0
2016-Jun-27 12:32N 46°11' W 123°51'564778.7
2016-Jun-27 12:31N 45°37' W 122°48'432708.5
2016-Jun-27 12:30N 46°12' W 123°23'1414.5
2016-Jun-27 11:33N 46°10' W 123°03'332666.9
2016-Jun-27 11:32N 46°11' W 123°51'20710.7
2016-Jun-27 11:30N 46°12' W 123°23'431275.8
2016-Jun-27 11:28N 45°37' W 122°48'3537.5
2016-Jun-27 10:33N 46°10' W 123°03'332553.5
2016-Jun-27 10:32N 46°11' W 123°51'565424.5
2016-Jun-27 10:31N 45°37' W 122°48'432708.2
2016-Jun-27 10:30N 46°12' W 123°23'2020.1
2016-Jun-27 09:32N 46°11' W 123°51'565146.3
2016-Jun-27 09:31N 45°37' W 122°48'35455.1
2016-Jun-27 09:27N 46°10' W 123°03'1441.0
2016-Jun-27 09:06N 46°12' W 123°23'2034.2
2016-Jun-27 08:32N 46°11' W 123°51'564561.2
2016-Jun-27 08:31N 45°37' W 122°48'43372.0
2016-Jun-27 08:24N 46°12' W 123°23'14229.4
2016-Jun-27 08:21N 46°10' W 123°03'3341.1
2016-Jun-27 07:32N 46°11' W 123°51'33916.1
2016-Jun-27 07:30N 46°10' W 123°03'351375.4
2016-Jun-27 07:28N 45°37' W 122°48'43161.3
2016-Jun-27 07:12N 46°12' W 123°23'1421.1
2016-Jun-27 06:33N 46°10' W 123°03'332609.0
2016-Jun-27 06:32N 46°11' W 123°51'565903.1
2016-Jun-27 06:31N 45°37' W 122°48'432530.6
2016-Jun-27 06:30N 46°12' W 123°23'2020.1
2016-Jun-27 05:32N 46°11' W 123°51'564014.1
2016-Jun-27 05:31N 45°37' W 122°48'351375.2
2016-Jun-27 05:30N 46°10' W 123°03'14156.1
2016-Jun-27 05:24N 46°12' W 123°23'1416.2
2016-Jun-27 04:33N 46°10' W 123°03'334000.4
2016-Jun-27 04:32N 46°11' W 123°51'56850.4
2016-Jun-27 04:28N 45°37' W 122°48'43161.0
2016-Jun-27 04:12N 46°12' W 123°23'1421.1
2016-Jun-27 03:33N 46°10' W 123°03'333158.2
2016-Jun-27 03:32N 46°11' W 123°51'56908.2
2016-Jun-27 03:28N 45°37' W 122°48'5659.4
2016-Jun-27 02:32N 46°11' W 123°51'56892.0
2016-Jun-27 02:28N 45°37' W 122°48'351331.5
2016-Jun-27 02:27N 46°10' W 123°03'3336.6
2016-Jun-27 01:32N 46°11' W 123°51'564363.2
2016-Jun-27 01:31N 45°37' W 122°48'35448.6
2016-Jun-27 01:27N 46°10' W 123°03'3336.6
2016-Jun-27 00:32N 46°11' W 123°51'33839.2
2016-Jun-27 00:30N 46°10' W 123°03'351508.0
2016-Jun-27 00:28N 45°37' W 122°48'43117.0
2016-Jun-27 00:06N 46°12' W 123°23'2034.2
2016-Jun-26 23:32N 46°11' W 123°51'564363.2
2016-Jun-26 23:31N 45°37' W 122°48'432661.5
2016-Jun-26 23:30N 46°12' W 123°23'14231.6
2016-Jun-26 23:27N 46°10' W 123°03'3336.6
2016-Jun-26 22:32N 46°11' W 123°51'564460.1
2016-Jun-26 22:31N 45°37' W 122°48'432616.4
2016-Jun-26 22:30N 46°12' W 123°23'141358.0
2016-Jun-26 22:30N 46°10' W 123°03'1414.1
2016-Jun-26 21:30N 46°12' W 123°23'141435.6
2016-Jun-26 21:30N 46°10' W 123°03'333333.7
2016-Jun-26 21:29N 46°11' W 123°51'564181.4
2016-Jun-26 21:28N 45°37' W 122°48'5659.5
2016-Jun-26 20:32N 46°11' W 123°51'564270.3
2016-Jun-26 20:31N 45°37' W 122°48'351303.8
2016-Jun-26 20:30N 46°10' W 123°03'1473.4
2016-Jun-26 20:18N 46°12' W 123°23'1418.4
2016-Jun-26 19:33N 46°10' W 123°03'334000.4
2016-Jun-26 19:32N 46°11' W 123°51'563786.9
2016-Jun-26 19:31N 45°37' W 122°48'3535.6
2016-Jun-26 18:33N 46°10' W 123°03'333077.3
2016-Jun-26 18:32N 46°11' W 123°51'56586.9
2016-Jun-26 18:26N 45°37' W 122°48'5661.6
2016-Jun-26 17:32N 46°11' W 123°51'33237.7
2016-Jun-26 17:24N 46°10' W 123°03'351526.1
2016-Jun-26 17:22N 45°37' W 122°48'5666.7
2016-Jun-26 16:32N 46°11' W 123°51'564014.1
2016-Jun-26 16:31N 45°37' W 122°48'351290.3
2016-Jun-26 16:30N 46°10' W 123°03'0 0.0
2016-Jun-26 15:33N 46°10' W 123°03'333429.0
2016-Jun-26 15:32N 46°11' W 123°51'56884.2
2016-Jun-26 15:28N 45°37' W 122°48'5659.6
2016-Jun-26 14:32N 46°11' W 123°51'33805.5
2016-Jun-26 14:30N 46°10' W 123°03'35283.2
2016-Jun-26 14:22N 45°37' W 122°48'4352.5
2016-Jun-26 13:33N 46°12' W 123°23'20963.9
2016-Jun-26 13:32N 46°11' W 123°51'564270.1
2016-Jun-26 13:31N 45°37' W 122°48'351251.6
2016-Jun-26 13:30N 46°10' W 123°03'3334.8
2016-Jun-26 12:32N 46°11' W 123°51'563859.7
2016-Jun-26 12:31N 45°37' W 122°48'351264.3
2016-Jun-26 12:30N 46°10' W 123°03'1473.6
2016-Jun-26 12:18N 46°12' W 123°23'2025.4
2016-Jun-26 11:32N 46°11' W 123°51'563935.4
2016-Jun-26 11:31N 45°37' W 122°48'432530.6
2016-Jun-26 11:30N 46°12' W 123°23'141435.6
2016-Jun-26 11:30N 46°10' W 123°03'3334.8
2016-Jun-26 10:32N 46°11' W 123°51'33800.1
2016-Jun-26 10:30N 46°10' W 123°03'35470.5
2016-Jun-26 10:25N 45°37' W 122°48'432572.8
2016-Jun-26 10:24N 46°12' W 123°23'2022.5
2016-Jun-26 09:32N 46°11' W 123°51'563935.4
2016-Jun-26 09:31N 45°37' W 122°48'43366.7
2016-Jun-26 09:24N 46°12' W 123°23'14234.8
2016-Jun-26 09:21N 46°10' W 123°03'3341.2
2016-Jun-26 08:32N 46°11' W 123°51'563649.0
2016-Jun-26 08:31N 45°37' W 122°48'351331.5
2016-Jun-26 08:30N 46°10' W 123°03'0 0.0
2016-Jun-26 07:33N 46°10' W 123°03'333077.3
2016-Jun-26 07:32N 46°11' W 123°51'563786.9
2016-Jun-26 07:31N 45°37' W 122°48'3535.6
2016-Jun-26 06:33N 46°10' W 123°03'14346.5
2016-Jun-26 06:30N 46°12' W 123°23'201134.9
2016-Jun-26 06:29N 46°11' W 123°51'56843.3
2016-Jun-26 06:25N 45°37' W 122°48'5663.0
2016-Jun-26 05:32N 46°11' W 123°51'20611.9
2016-Jun-26 05:30N 46°12' W 123°23'141358.1
2016-Jun-26 05:30N 46°10' W 123°03'351507.7
2016-Jun-26 05:28N 45°37' W 122°48'5659.6
2016-Jun-26 04:32N 46°11' W 123°51'563716.8
2016-Jun-26 04:31N 45°37' W 122°48'351303.6
2016-Jun-26 04:30N 46°10' W 123°03'1435.8
2016-Jun-26 04:06N 46°12' W 123°23'1424.9
2016-Jun-26 03:33N 46°10' W 123°03'334138.4
2016-Jun-26 03:32N 46°11' W 123°51'56854.1
2016-Jun-26 03:28N 45°37' W 122°48'5659.7
2016-Jun-26 02:32N 46°11' W 123°51'33759.6
2016-Jun-26 02:30N 46°10' W 123°03'351526.4
2016-Jun-26 02:28N 45°37' W 122°48'5659.7
2016-Jun-26 01:32N 46°11' W 123°51'33784.4
2016-Jun-26 01:30N 46°10' W 123°03'351490.0
2016-Jun-26 01:28N 45°37' W 122°48'3537.5
2016-Jun-26 00:33N 46°10' W 123°03'335000.6
2016-Jun-26 00:32N 46°11' W 123°51'56836.3
2016-Jun-26 00:28N 45°37' W 122°48'3537.5
2016-Jun-25 23:33N 46°10' W 123°03'335714.9
2016-Jun-25 23:32N 46°11' W 123°51'56825.9
2016-Jun-25 23:28N 45°37' W 122°48'3537.5
2016-Jun-25 22:33N 46°10' W 123°03'336000.6
2016-Jun-25 22:32N 46°11' W 123°51'563136.0
2016-Jun-25 22:31N 45°37' W 122°48'432708.2
2016-Jun-25 22:30N 46°12' W 123°23'1414.5
2016-Jun-25 21:33N 46°10' W 123°03'335455.2
2016-Jun-25 21:32N 46°11' W 123°51'563237.2
2016-Jun-25 21:31N 45°37' W 122°48'43198.2
2016-Jun-25 21:18N 46°12' W 123°23'2025.5
2016-Jun-25 20:32N 46°11' W 123°51'33759.6
2016-Jun-25 20:30N 46°10' W 123°03'35472.3
2016-Jun-25 20:25N 45°37' W 122°48'43136.0
2016-Jun-25 20:06N 46°12' W 123°23'2034.4
2016-Jun-25 19:32N 46°11' W 123°51'563237.2
2016-Jun-25 19:31N 45°37' W 122°48'432661.8
2016-Jun-25 19:30N 46°12' W 123°23'141435.8
2016-Jun-25 19:30N 46°10' W 123°03'0 0.0
2016-Jun-25 18:33N 46°10' W 123°03'335217.9
2016-Jun-25 18:32N 46°11' W 123°51'20576.8
2016-Jun-25 18:30N 46°12' W 123°23'431286.4
2016-Jun-25 18:28N 45°37' W 122°48'5659.8
2016-Jun-25 17:32N 46°11' W 123°51'33764.4
2016-Jun-25 17:30N 46°10' W 123°03'351489.8
2016-Jun-25 17:28N 45°37' W 122°48'3537.5
2016-Jun-25 16:33N 46°10' W 123°03'335714.9
2016-Jun-25 16:32N 46°11' W 123°51'563040.8
2016-Jun-25 16:31N 45°37' W 122°48'3535.6
2016-Jun-25 15:33N 46°10' W 123°03'336316.5
2016-Jun-25 15:32N 46°11' W 123°51'56829.4
2016-Jun-25 15:28N 45°37' W 122°48'5659.8
2016-Jun-25 14:32N 46°11' W 123°51'563087.8
2016-Jun-25 14:31N 45°37' W 122°48'351360.2
2016-Jun-25 14:30N 46°10' W 123°03'1414.8
2016-Jun-25 13:33N 46°12' W 123°23'141570.3
2016-Jun-25 13:33N 46°10' W 123°03'336316.5
2016-Jun-25 13:33N 46°11' W 123°51'56806.0
2016-Jun-25 13:28N 45°37' W 122°48'4346.8
2016-Jun-25 12:33N 46°12' W 123°23'141322.4
2016-Jun-25 12:33N 46°10' W 123°03'335000.6
2016-Jun-25 12:32N 46°11' W 123°51'563136.0
2016-Jun-25 12:31N 45°37' W 122°48'3535.6
2016-Jun-25 11:33N 46°10' W 123°03'33609.2
2016-Jun-25 11:29N 46°11' W 123°51'562995.6
2016-Jun-25 11:28N 45°37' W 122°48'43117.1
2016-Jun-25 11:06N 46°12' W 123°23'1424.9
2016-Jun-25 10:33N 46°10' W 123°03'337059.6
2016-Jun-25 10:32N 46°11' W 123°51'563087.8
2016-Jun-25 10:31N 45°37' W 122°48'43370.2
2016-Jun-25 10:24N 46°12' W 123°23'1416.2
2016-Jun-25 09:33N 46°10' W 123°03'337059.6
2016-Jun-25 09:33N 46°11' W 123°51'563087.8
2016-Jun-25 09:31N 45°37' W 122°48'0 0.0
2016-Jun-25 08:33N 45°37' W 122°48'3520860.5
2016-Jun-25 08:33N 46°10' W 123°03'338572.3
2016-Jun-25 08:33N 46°11' W 123°51'0 0.0
2016-Jun-25 07:32N 46°11' W 123°51'56595.6
2016-Jun-25 07:27N 45°37' W 122°48'35680.2
2016-Jun-25 07:24N 46°10' W 123°03'3541.0
2016-Jun-25 06:33N 45°37' W 122°48'3515645.4
2016-Jun-25 06:33N 46°10' W 123°03'337500.8
2016-Jun-25 06:32N 46°11' W 123°51'5656.1
2016-Jun-25 05:33N 45°37' W 122°48'5610563.5
2016-Jun-25 05:33N 46°11' W 123°51'33228.6
2016-Jun-25 05:24N 46°10' W 123°03'0 0.0
2016-Jun-25 04:33N 46°10' W 123°03'338000.8
2016-Jun-25 04:33N 46°11' W 123°51'56593.8
2016-Jun-25 04:27N 45°37' W 122°48'0 0.0
2016-Jun-25 03:33N 45°37' W 122°48'5613380.4
2016-Jun-25 03:33N 46°11' W 123°51'33226.9
2016-Jun-25 03:24N 46°10' W 123°03'3540.9
2016-Jun-25 02:33N 45°37' W 122°48'5611150.3
2016-Jun-25 02:33N 46°11' W 123°51'33731.8
2016-Jun-25 02:30N 46°10' W 123°03'3536.7
2016-Jun-25 01:33N 45°37' W 122°48'3513904.7
2016-Jun-25 01:33N 46°10' W 123°03'3310001.1
2016-Jun-25 01:33N 46°11' W 123°51'2044.8
2016-Jun-25 01:06N 46°12' W 123°23'0 0.0
2016-Jun-25 00:33N 46°12' W 123°23'141225.5
2016-Jun-25 00:33N 46°10' W 123°03'3313334.7
2016-Jun-25 00:33N 46°11' W 123°51'56384.5
2016-Jun-25 00:24N 45°37' W 122°48'0 0.0
2016-Jun-24 23:33N 45°37' W 122°48'5610563.5
2016-Jun-24 23:33N 46°11' W 123°51'33346.9
2016-Jun-24 23:27N 46°10' W 123°03'1458.2
2016-Jun-24 23:12N 46°12' W 123°23'1421.1
2016-Jun-24 22:33N 46°10' W 123°03'3310910.2
2016-Jun-24 22:33N 46°11' W 123°51'561254.4
2016-Jun-24 22:30N 45°37' W 122°48'43470.6
2016-Jun-24 22:24N 46°12' W 123°23'2022.6
2016-Jun-24 21:33N 46°11' W 123°51'20525.1
2016-Jun-24 21:30N 46°12' W 123°23'43742.2
2016-Jun-24 21:27N 45°37' W 122°48'35672.9
2016-Jun-24 21:24N 46°10' W 123°03'3540.9
2016-Jun-24 20:33N 45°37' W 122°48'3562581.6
2016-Jun-24 20:33N 46°10' W 123°03'339231.7
2016-Jun-24 20:33N 46°11' W 123°51'0 0.0
2016-Jun-24 19:33N 46°11' W 123°51'20533.1
2016-Jun-24 19:30N 46°12' W 123°23'434824.0
2016-Jun-24 19:30N 45°37' W 122°48'3520860.5
2016-Jun-24 19:30N 46°10' W 123°03'0 0.0
2016-Jun-24 18:33N 46°10' W 123°03'3562571.3
2016-Jun-24 18:33N 45°37' W 122°48'5615438.9
2016-Jun-24 18:33N 46°11' W 123°51'20525.1
2016-Jun-24 18:30N 46°12' W 123°23'4344.7
2016-Jun-24 17:33N 45°37' W 122°48'5615437.9
2016-Jun-24 17:33N 46°11' W 123°51'20521.2
2016-Jun-24 17:30N 46°12' W 123°23'1486.9
2016-Jun-24 17:21N 46°10' W 123°03'0 0.0
2016-Jun-24 16:33N 46°10' W 123°03'3312001.3
2016-Jun-24 16:33N 46°11' W 123°51'20545.5
2016-Jun-24 16:30N 46°12' W 123°23'43721.3
2016-Jun-24 16:27N 45°37' W 122°48'0 0.0
2016-Jun-24 15:33N 45°37' W 122°48'5611149.6
2016-Jun-24 15:33N 46°11' W 123°51'33706.0
2016-Jun-24 15:30N 46°10' W 123°03'14155.1
2016-Jun-24 15:24N 46°12' W 123°23'1416.2
2016-Jun-24 14:33N 46°10' W 123°03'3310910.3
2016-Jun-24 14:33N 46°11' W 123°51'56581.8
2016-Jun-24 14:27N 45°37' W 122°48'0 0.0
2016-Jun-24 13:33N 45°37' W 122°48'561039.9
2016-Jun-24 13:30N 46°11' W 123°51'33681.9
2016-Jun-24 13:27N 46°10' W 123°03'14155.6
2016-Jun-24 13:21N 46°12' W 123°23'4353.0
2016-Jun-24 12:33N 45°37' W 122°48'5633450.9
2016-Jun-24 12:33N 46°11' W 123°51'20499.0
2016-Jun-24 12:30N 46°12' W 123°23'141395.7
2016-Jun-24 12:30N 46°10' W 123°03'0 0.0
2016-Jun-24 11:33N 46°10' W 123°03'3320002.1
2016-Jun-24 11:33N 46°11' W 123°51'56573.4
2016-Jun-24 11:27N 45°37' W 122°48'43303.3
2016-Jun-24 11:18N 46°12' W 123°23'4356.6
2016-Jun-24 10:33N 45°37' W 122°48'5615438.9
2016-Jun-24 10:33N 46°11' W 123°51'33693.7
2016-Jun-24 10:30N 46°10' W 123°03'14344.2
2016-Jun-24 10:27N 46°12' W 123°23'4347.2
2016-Jun-24 09:33N 45°37' W 122°48'3515642.8
2016-Jun-24 09:33N 46°10' W 123°03'3340004.5
2016-Jun-24 09:33N 46°11' W 123°51'20521.2
2016-Jun-24 09:30N 46°12' W 123°23'4344.7
2016-Jun-24 08:33N 45°37' W 122°48'5616724.4
2016-Jun-24 08:33N 46°11' W 123°51'33697.7
2016-Jun-24 08:30N 46°10' W 123°03'14155.1
2016-Jun-24 08:24N 46°12' W 123°23'4349.9
2016-Jun-24 07:33N 45°37' W 122°48'5622300.6
2016-Jun-24 07:33N 46°11' W 123°51'20499.0
2016-Jun-24 07:30N 46°12' W 123°23'141358.0
2016-Jun-24 07:30N 46°10' W 123°03'3511.8
2016-Jun-24 04:33N 45°37' W 122°48'5620070.6
2016-Jun-24 04:33N 46°11' W 123°51'20537.1
2016-Jun-24 04:31N 46°12' W 123°23'14226.4
2016-Jun-24 04:27N 46°10' W 123°03'3538.6
2016-Jun-24 03:33N 45°37' W 122°48'3541714.2
2016-Jun-24 03:33N 46°10' W 123°03'3360006.7
2016-Jun-24 03:33N 46°11' W 123°51'20140.4
2016-Jun-24 03:24N 46°12' W 123°23'2021.5
2016-Jun-24 02:30N 46°11' W 123°51'56557.5
2016-Jun-24 02:24N 45°37' W 122°48'35342.9
2016-Jun-24 02:18N 46°10' W 123°03'1473.7
2016-Jun-24 02:06N 46°12' W 123°23'4376.7
2016-Jun-24 01:33N 45°37' W 122°48'5628672.2
2016-Jun-24 01:33N 46°11' W 123°51'33670.5
2016-Jun-24 01:30N 46°10' W 123°03'3536.6
2016-Jun-24 00:33N 45°37' W 122°48'56100352.8
2016-Jun-24 00:33N 46°11' W 123°51'33337.1
2016-Jun-24 00:27N 46°10' W 123°03'1415.6
2016-Jun-23 23:33N 46°12' W 123°23'202069.5
2016-Jun-23 23:33N 46°11' W 123°51'561140.4
2016-Jun-23 23:30N 45°37' W 122°48'35229.2
2016-Jun-23 23:21N 46°10' W 123°03'1417.7
2016-Jun-23 22:33N 46°12' W 123°23'434979.6
2016-Jun-23 22:33N 45°37' W 122°48'3562581.6
2016-Jun-23 22:33N 46°10' W 123°03'33120012.6
2016-Jun-23 22:33N 46°11' W 123°51'5655.8
2016-Jun-23 21:33N 45°37' W 122°48'3520860.5
2016-Jun-23 21:33N 46°10' W 123°03'33681.9
2016-Jun-23 21:30N 46°11' W 123°51'0 0.0
2016-Jun-23 20:33N 46°11' W 123°51'33333.4
2016-Jun-23 20:27N 46°10' W 123°03'14348.9
2016-Jun-23 20:24N 46°12' W 123°23'435323.0
2016-Jun-23 20:24N 45°37' W 122°48'0 0.0
2016-Jun-23 19:33N 45°37' W 122°48'5628672.2
2016-Jun-23 19:33N 46°11' W 123°51'20495.5
2016-Jun-23 19:30N 46°12' W 123°23'2020.4
2016-Jun-23 18:33N 46°11' W 123°51'20466.0
2016-Jun-23 18:30N 46°12' W 123°23'434979.6
2016-Jun-23 18:30N 45°37' W 122°48'3525032.6
2016-Jun-23 18:30N 46°10' W 123°03'3333.4
2016-Jun-23 17:30N 46°11' W 123°51'33652.2
2016-Jun-23 17:27N 46°10' W 123°03'35711.0
2016-Jun-23 17:24N 45°37' W 122°48'43469.2
2016-Jun-23 17:18N 46°12' W 123°23'2025.8
2016-Jun-23 16:33N 46°11' W 123°51'561108.9
2016-Jun-23 16:30N 45°37' W 122°48'3525032.6
2016-Jun-23 16:30N 46°10' W 123°03'14155.6
2016-Jun-23 16:24N 46°12' W 123°23'2022.8
2016-Jun-23 15:33N 46°11' W 123°51'56372.4
2016-Jun-23 15:24N 45°37' W 122°48'35669.3
2016-Jun-23 15:21N 46°10' W 123°03'14351.4
2016-Jun-23 15:18N 46°12' W 123°23'2026.0
2016-Jun-23 14:33N 46°11' W 123°51'567719.4
2016-Jun-23 14:33N 45°37' W 122°48'3531290.8
2016-Jun-23 14:33N 46°10' W 123°03'1498.9
2016-Jun-23 14:24N 46°12' W 123°23'2022.8
2016-Jun-23 13:33N 46°11' W 123°51'56100346.2
2016-Jun-23 13:33N 45°37' W 122°48'3515645.4
2016-Jun-23 13:33N 46°10' W 123°03'14353.8
2016-Jun-23 13:30N 46°12' W 123°23'0 0.0
2016-Jun-23 12:33N 46°12' W 123°23'434677.8
2016-Jun-23 12:33N 45°37' W 122°48'3541721.0
2016-Jun-23 12:33N 46°10' W 123°03'33689.7
2016-Jun-23 12:30N 46°11' W 123°51'0 0.0
2016-Jun-23 11:33N 46°11' W 123°51'3320002.1
2016-Jun-23 11:33N 46°10' W 123°03'35711.2
2016-Jun-23 11:30N 45°37' W 122°48'43306.9
2016-Jun-23 11:21N 46°12' W 123°23'4352.9
2016-Jun-23 10:33N 45°37' W 122°48'3520860.5
2016-Jun-23 10:33N 46°10' W 123°03'33689.7
2016-Jun-23 10:30N 46°11' W 123°51'0 0.0
2016-Jun-23 09:33N 46°11' W 123°51'56200705.6
2016-Jun-23 09:33N 45°37' W 122°48'35680.2
2016-Jun-23 09:30N 46°10' W 123°03'3335.1
2016-Jun-23 08:33N 46°11' W 123°51'33641.8
2016-Jun-23 08:30N 46°10' W 123°03'1473.4
2016-Jun-23 08:18N 46°12' W 123°23'436432.7
2016-Jun-23 08:18N 45°37' W 122°48'5674.3
2016-Jun-23 07:33N 46°11' W 123°51'33635.0
2016-Jun-23 07:30N 46°10' W 123°03'35711.2
2016-Jun-23 07:27N 45°37' W 122°48'431036.0
2016-Jun-23 07:24N 46°12' W 123°23'4323.1
2016-Jun-23 05:33N 45°37' W 122°48'3531285.6
2016-Jun-23 05:33N 46°10' W 123°03'14351.4
2016-Jun-23 05:30N 46°12' W 123°23'20346.6
2016-Jun-23 05:27N 46°11' W 123°51'0 0.0
2016-Jun-23 04:33N 46°11' W 123°51'33641.8
2016-Jun-23 04:30N 46°10' W 123°03'35707.0
2016-Jun-23 04:27N 45°37' W 122°48'43309.4
2016-Jun-23 04:19N 46°12' W 123°23'2025.7
2016-Jun-23 03:33N 46°11' W 123°51'5625088.2
2016-Jun-23 03:33N 45°37' W 122°48'431064.6
2016-Jun-23 03:30N 46°12' W 123°23'141322.3
2016-Jun-23 03:30N 46°10' W 123°03'3335.2
2016-Jun-23 02:33N 46°11' W 123°51'5628672.2
2016-Jun-23 02:33N 45°37' W 122°48'351251.4
2016-Jun-23 02:31N 46°10' W 123°03'14122.6
2016-Jun-23 02:24N 46°12' W 123°23'2022.8
2016-Jun-23 01:33N 46°11' W 123°51'5640141.1
2016-Jun-23 01:33N 45°37' W 122°48'43303.3
2016-Jun-23 01:24N 46°12' W 123°23'14398.8
2016-Jun-23 01:22N 46°10' W 123°03'3340.6
2016-Jun-23 00:33N 46°11' W 123°51'5628672.2
2016-Jun-23 00:33N 45°37' W 122°48'35446.9
2016-Jun-23 00:28N 46°10' W 123°03'3336.2
2016-Jun-22 23:33N 46°11' W 123°51'5666901.9
2016-Jun-22 23:33N 45°37' W 122°48'35445.3
2016-Jun-22 23:28N 46°10' W 123°03'1444.5
2016-Jun-22 23:09N 46°12' W 123°23'2032.2
2016-Jun-22 22:33N 46°11' W 123°51'33418.2
2016-Jun-22 22:28N 46°10' W 123°03'351564.5
2016-Jun-22 22:27N 45°37' W 122°48'5662.1
2016-Jun-22 21:33N 46°11' W 123°51'5625088.2
2016-Jun-22 21:33N 45°37' W 122°48'351303.8
2016-Jun-22 21:31N 46°10' W 123°03'14948.1
2016-Jun-22 21:30N 46°12' W 123°23'2020.5
2016-Jun-22 20:33N 46°11' W 123°51'5615438.9
2016-Jun-22 20:33N 45°37' W 122°48'431050.1
2016-Jun-22 20:30N 46°12' W 123°23'14386.5
2016-Jun-22 20:28N 46°10' W 123°03'3336.3
2016-Jun-22 19:33N 46°11' W 123°51'331101.0
2016-Jun-22 19:31N 46°10' W 123°03'14985.2
2016-Jun-22 19:30N 46°12' W 123°23'43731.6
2016-Jun-22 19:27N 45°37' W 122°48'5662.1
2016-Jun-22 18:33N 46°11' W 123°51'5622300.6
2016-Jun-22 18:33N 45°37' W 122°48'35153.6
2016-Jun-22 18:19N 46°10' W 123°03'14930.5
2016-Jun-22 18:18N 46°12' W 123°23'2025.9
2016-Jun-22 17:33N 46°11' W 123°51'20437.0
2016-Jun-22 17:30N 46°12' W 123°23'14386.5
2016-Jun-22 17:28N 46°10' W 123°03'351490.0
2016-Jun-22 17:27N 45°37' W 122°48'4345.6
2016-Jun-22 16:30N 46°12' W 123°23'204397.7
2016-Jun-22 16:30N 46°11' W 123°51'331101.0
2016-Jun-22 16:28N 46°10' W 123°03'351472.5
2016-Jun-22 16:27N 45°37' W 122°48'5662.2
2016-Jun-22 15:33N 46°11' W 123°51'331121.6
2016-Jun-22 15:31N 46°10' W 123°03'14930.5
2016-Jun-22 15:30N 46°12' W 123°23'43205.3
2016-Jun-22 15:18N 45°37' W 122°48'5674.8
2016-Jun-22 14:33N 46°11' W 123°51'5618246.0
2016-Jun-22 14:33N 45°37' W 122°48'35443.8
2016-Jun-22 14:28N 46°10' W 123°03'3537.7
2016-Jun-22 13:33N 45°37' W 122°48'561216.4
2016-Jun-22 13:30N 46°11' W 123°51'331071.5
2016-Jun-22 13:28N 46°10' W 123°03'3336.3
2016-Jun-22 12:33N 46°11' W 123°51'5615438.9
2016-Jun-22 12:33N 45°37' W 122°48'35450.2
2016-Jun-22 12:28N 46°10' W 123°03'14966.3
2016-Jun-22 12:27N 46°12' W 123°23'2021.6
2016-Jun-22 11:33N 46°11' W 123°51'331091.0
2016-Jun-22 11:31N 46°10' W 123°03'35472.3
2016-Jun-22 11:27N 45°37' W 122°48'43225.4
2016-Jun-22 11:15N 46°12' W 123°23'0 0.0
2016-Jun-22 10:33N 46°12' W 123°23'204690.9
2016-Jun-22 10:33N 46°11' W 123°51'5610563.5
2016-Jun-22 10:33N 45°37' W 122°48'351290.3
2016-Jun-22 10:31N 46°10' W 123°03'0 0.0
2016-Jun-22 09:31N 46°10' W 123°03'14985.2
2016-Jun-22 09:30N 46°12' W 123°23'205026.0
2016-Jun-22 09:30N 46°11' W 123°51'56531.0
2016-Jun-22 09:24N 45°37' W 122°48'5666.0
2016-Jun-22 08:33N 46°11' W 123°51'5613380.4
2016-Jun-22 08:33N 45°37' W 122°48'35447.0
2016-Jun-22 08:28N 46°10' W 123°03'1484.9
2016-Jun-22 08:18N 46°12' W 123°23'2025.9
2016-Jun-22 07:33N 46°11' W 123°51'5612544.1
2016-Jun-22 07:33N 45°37' W 122°48'35450.2
2016-Jun-22 07:28N 46°10' W 123°03'3336.3
2016-Jun-22 06:33N 46°11' W 123°51'5610035.3
2016-Jun-22 06:33N 45°37' W 122°48'351360.5
2016-Jun-22 06:31N 46°10' W 123°03'1465.1
2016-Jun-22 06:18N 46°12' W 123°23'2025.9
2016-Jun-22 05:33N 46°11' W 123°51'569557.4
2016-Jun-22 05:33N 45°37' W 122°48'431050.1
2016-Jun-22 05:30N 46°12' W 123°23'2020.5
2016-Jun-22 04:33N 46°11' W 123°51'33406.8
2016-Jun-22 04:28N 46°10' W 123°03'351490.0
2016-Jun-22 04:27N 45°37' W 122°48'5662.4
2016-Jun-22 03:33N 46°11' W 123°51'5610035.3
2016-Jun-22 03:33N 45°37' W 122°48'35272.0
2016-Jun-22 03:25N 46°10' W 123°03'3338.4
2016-Jun-22 02:33N 46°11' W 123°51'5612544.1
2016-Jun-22 02:33N 45°37' W 122°48'431029.1
2016-Jun-22 02:30N 46°12' W 123°23'1475.2
2016-Jun-22 02:19N 46°10' W 123°03'3545.0
2016-Jun-22 01:33N 45°37' W 122°48'561262.3
2016-Jun-22 01:30N 46°11' W 123°51'33181.8
2016-Jun-22 01:19N 46°10' W 123°03'3343.4
2016-Jun-22 00:33N 46°11' W 123°51'331043.6
2016-Jun-22 00:31N 46°10' W 123°03'35474.0
2016-Jun-22 00:27N 45°37' W 122°48'5662.3
2016-Jun-21 23:33N 46°11' W 123°51'5611150.3
2016-Jun-21 23:33N 45°37' W 122°48'35196.2
2016-Jun-21 23:22N 46°10' W 123°03'3340.8
2016-Jun-21 22:33N 46°11' W 123°51'5611806.2
2016-Jun-21 22:33N 45°37' W 122°48'351251.6
2016-Jun-21 22:31N 46°10' W 123°03'3334.5
2016-Jun-21 21:33N 46°11' W 123°51'33983.7
2016-Jun-21 21:31N 46°10' W 123°03'351507.7
2016-Jun-21 21:30N 45°37' W 122°48'5659.1
2016-Jun-21 20:33N 46°11' W 123°51'33400.0
2016-Jun-21 20:28N 46°10' W 123°03'351526.1
2016-Jun-21 20:27N 45°37' W 122°48'0 0.0
2016-Jun-21 19:33N 45°37' W 122°48'351317.5
2016-Jun-21 19:31N 46°10' W 123°03'332000.2
2016-Jun-21 19:30N 46°11' W 123°51'0 0.0
2016-Jun-21 18:33N 46°11' W 123°51'567719.4
2016-Jun-21 18:33N 45°37' W 122°48'431057.3
2016-Jun-21 18:30N 46°12' W 123°23'14386.5
2016-Jun-21 18:28N 46°10' W 123°03'3336.4
2016-Jun-21 17:33N 46°11' W 123°51'33401.4
2016-Jun-21 17:28N 46°10' W 123°03'35200.9
2016-Jun-21 17:18N 45°37' W 122°48'5675.0
2016-Jun-21 16:33N 46°11' W 123°51'568726.3
2016-Jun-21 16:33N 45°37' W 122°48'35451.8
2016-Jun-21 16:28N 46°10' W 123°03'3336.4
2016-Jun-21 15:33N 46°11' W 123°51'33967.8
2016-Jun-21 15:31N 46°10' W 123°03'3593.1
2016-Jun-21 15:09N 45°37' W 122°48'5694.1
2016-Jun-21 14:33N 46°11' W 123°51'568726.3
2016-Jun-21 14:33N 45°37' W 122°48'35425.7
2016-Jun-21 14:28N 46°10' W 123°03'3336.6
2016-Jun-21 13:33N 46°11' W 123°51'568362.7
2016-Jun-21 13:33N 45°37' W 122°48'351107.6
2016-Jun-21 13:31N 46°10' W 123°03'3334.7
2016-Jun-21 12:33N 46°11' W 123°51'568028.2
2016-Jun-21 12:33N 45°37' W 122°48'35424.2
2016-Jun-21 12:28N 46°10' W 123°03'3336.6
2016-Jun-21 11:33N 46°11' W 123°51'569557.4
2016-Jun-21 11:33N 45°37' W 122°48'351088.4
2016-Jun-21 11:31N 46°10' W 123°03'3334.7
2016-Jun-21 10:33N 46°11' W 123°51'566920.9
2016-Jun-21 10:33N 45°37' W 122°48'35436.0
2016-Jun-21 10:28N 46°10' W 123°03'1433.9
2016-Jun-21 10:03N 46°12' W 123°23'2039.1
2016-Jun-21 09:33N 46°11' W 123°51'566082.0
2016-Jun-21 09:33N 45°37' W 122°48'352607.6
2016-Jun-21 09:32N 46°10' W 123°03'1478.8
2016-Jun-21 09:21N 46°12' W 123°23'2024.4
2016-Jun-21 08:33N 46°11' W 123°51'566920.9
2016-Jun-21 08:33N 45°37' W 122°48'352275.7
2016-Jun-21 08:32N 46°10' W 123°03'3334.1
2016-Jun-21 07:33N 46°11' W 123°51'331250.1
2016-Jun-21 07:32N 46°10' W 123°03'351097.9
2016-Jun-21 07:30N 45°37' W 122°48'5659.2
2016-Jun-21 06:33N 46°11' W 123°51'566690.2
2016-Jun-21 06:33N 45°37' W 122°48'5628.0
2016-Jun-21 04:33N 46°11' W 123°51'567168.1
2016-Jun-21 04:33N 45°37' W 122°48'351814.0
2016-Jun-21 04:32N 46°10' W 123°03'3334.3
2016-Jun-21 03:33N 46°11' W 123°51'567168.1
2016-Jun-21 03:33N 45°37' W 122°48'35158.2
2016-Jun-21 03:20N 46°10' W 123°03'3343.2
2016-Jun-21 02:33N 46°11' W 123°51'566272.1
2016-Jun-21 02:33N 45°37' W 122°48'35293.8
2016-Jun-21 02:26N 46°10' W 123°03'3338.2
2016-Jun-21 01:33N 46°11' W 123°51'331154.0
2016-Jun-21 01:32N 46°10' W 123°03'35265.2
2016-Jun-21 01:24N 45°37' W 122°48'5666.3
2016-Jun-21 00:33N 46°11' W 123°51'566272.1
2016-Jun-21 00:33N 45°37' W 122°48'351896.1
2016-Jun-21 00:32N 46°10' W 123°03'3334.3
2016-Jun-20 23:33N 46°11' W 123°51'566474.4
2016-Jun-20 23:33N 45°37' W 122°48'351925.3
2016-Jun-20 23:32N 46°10' W 123°03'1462.5
2016-Jun-20 23:18N 46°12' W 123°23'2026.1
2016-Jun-20 22:33N 46°11' W 123°51'20395.3
2016-Jun-20 22:30N 46°12' W 123°23'43714.7
2016-Jun-20 22:27N 45°37' W 122°48'351955.7
2016-Jun-20 22:26N 46°10' W 123°03'3338.2
2016-Jun-20 21:33N 46°11' W 123°51'56512.0
2016-Jun-20 21:27N 45°37' W 122°48'35292.4
2016-Jun-20 21:20N 46°10' W 123°03'3343.2
2016-Jun-20 20:33N 46°11' W 123°51'56937.8
2016-Jun-20 20:30N 45°37' W 122°48'35292.4
2016-Jun-20 20:23N 46°10' W 123°03'3340.5
2016-Jun-20 19:33N 46°11' W 123°51'565903.1
2016-Jun-20 19:33N 45°37' W 122°48'43303.9
2016-Jun-20 19:24N 46°12' W 123°23'14109.7
2016-Jun-20 19:17N 46°10' W 123°03'3343.2
2016-Jun-20 18:30N 46°11' W 123°51'56937.9
2016-Jun-20 18:27N 45°37' W 122°48'351840.6
2016-Jun-20 18:26N 46°10' W 123°03'14620.3
2016-Jun-20 18:24N 46°12' W 123°23'2023.0
2016-Jun-20 17:33N 46°11' W 123°51'331165.2
2016-Jun-20 17:32N 46°10' W 123°03'35425.7
2016-Jun-20 17:27N 45°37' W 122°48'43177.6
2016-Jun-20 17:12N 46°12' W 123°23'2030.1
2016-Jun-20 16:33N 46°11' W 123°51'331188.2
2016-Jun-20 16:32N 46°10' W 123°03'351079.0
2016-Jun-20 16:30N 45°37' W 122°48'5659.3
2016-Jun-20 15:33N 46°11' W 123°51'565903.1
2016-Jun-20 15:33N 45°37' W 122°48'351788.0
2016-Jun-20 15:32N 46°10' W 123°03'14620.3
2016-Jun-20 15:30N 46°12' W 123°23'2020.6
2016-Jun-20 14:33N 46°11' W 123°51'565734.4
2016-Jun-20 14:33N 45°37' W 122°48'351762.6
2016-Jun-20 14:32N 46°10' W 123°03'3334.4
2016-Jun-20 13:34N 46°11' W 123°51'331154.0
2016-Jun-20 13:32N 46°10' W 123°03'35264.1
2016-Jun-20 13:24N 45°37' W 122°48'5666.4
2016-Jun-20 12:34N 46°11' W 123°51'565017.6
2016-Jun-20 12:33N 45°37' W 122°48'351840.6
2016-Jun-20 12:32N 46°10' W 123°03'14195.5
2016-Jun-20 12:27N 46°12' W 123°23'2021.7
2016-Jun-20 11:34N 46°11' W 123°51'337059.6
2016-Jun-20 11:33N 46°10' W 123°03'35326.7
2016-Jun-20 11:27N 45°37' W 122°48'43109.6
2016-Jun-20 11:03N 46°12' W 123°23'2039.3
2016-Jun-20 10:34N 46°11' W 123°51'338000.9
2016-Jun-20 10:33N 46°10' W 123°03'35324.2
2016-Jun-20 10:27N 45°37' W 122°48'43476.4
2016-Jun-20 10:21N 46°12' W 123°23'2024.5
2016-Jun-20 09:34N 46°11' W 123°51'565017.6
2016-Jun-20 09:33N 45°37' W 122°48'35802.3
2016-Jun-20 09:30N 46°10' W 123°03'14297.3
2016-Jun-20 09:27N 46°12' W 123°23'2021.8
2016-Jun-20 08:34N 46°11' W 123°51'2011727.3
2016-Jun-20 08:33N 46°12' W 123°23'434677.8
2016-Jun-20 08:33N 45°37' W 122°48'35792.0
2016-Jun-20 08:30N 46°10' W 123°03'0 0.0
2016-Jun-20 07:33N 46°10' W 123°03'33750.1
2016-Jun-20 07:31N 46°11' W 123°51'205026.0
2016-Jun-20 07:30N 46°12' W 123°23'43394.8
2016-Jun-20 07:24N 45°37' W 122°48'4351.0
2016-Jun-20 06:33N 46°12' W 123°23'14512.7
2016-Jun-20 06:32N 46°10' W 123°03'331600.2
2016-Jun-20 06:31N 46°11' W 123°51'56904.1
2016-Jun-20 06:27N 45°37' W 122°48'5659.5
2016-Jun-20 05:31N 46°11' W 123°51'564460.1
2016-Jun-20 05:30N 45°37' W 122°48'351840.3
2016-Jun-20 05:29N 46°10' W 123°03'3334.4
2016-Jun-20 04:31N 46°11' W 123°51'564270.3
2016-Jun-20 04:30N 45°37' W 122°48'351840.6
2016-Jun-20 04:29N 46°10' W 123°03'1451.3
2016-Jun-20 04:12N 46°12' W 123°23'4365.2
2016-Jun-20 03:33N 45°37' W 122°48'351714.6
2016-Jun-20 03:32N 46°10' W 123°03'331791.2
2016-Jun-20 03:31N 46°11' W 123°51'205863.6
2016-Jun-20 03:30N 46°12' W 123°23'4344.7
2016-Jun-20 02:33N 45°37' W 122°48'561475.8
2016-Jun-20 02:31N 46°11' W 123°51'205412.6
2016-Jun-20 02:30N 46°12' W 123°23'14507.5
2016-Jun-20 02:29N 46°10' W 123°03'3334.5
2016-Jun-20 01:31N 46°11' W 123°51'564096.0
2016-Jun-20 01:30N 45°37' W 122°48'35205.9
2016-Jun-20 01:20N 46°10' W 123°03'3544.5
2016-Jun-20 00:33N 45°37' W 122°48'351986.4
2016-Jun-20 00:32N 46°10' W 123°03'331764.9
2016-Jun-20 00:31N 46°11' W 123°51'0 0.0
2016-Jun-19 23:31N 46°11' W 123°51'56896.0
2016-Jun-19 23:27N 45°37' W 122°48'351840.3
2016-Jun-19 23:26N 46°10' W 123°03'3336.3
2016-Jun-19 22:31N 46°11' W 123°51'564460.1
2016-Jun-19 22:30N 45°37' W 122°48'351762.9
2016-Jun-19 22:29N 46°10' W 123°03'1433.1
2016-Jun-19 22:03N 46°12' W 123°23'4384.3
2016-Jun-19 21:33N 45°37' W 122°48'351787.8
2016-Jun-19 21:32N 46°10' W 123°03'331875.2
2016-Jun-19 21:31N 46°11' W 123°51'5657.9
2016-Jun-19 20:33N 45°37' W 122°48'561568.0
2016-Jun-19 20:31N 46°11' W 123°51'331008.5
2016-Jun-19 20:29N 46°10' W 123°03'3537.3
2016-Jun-19 19:33N 45°37' W 122°48'561555.9
2016-Jun-19 19:31N 46°11' W 123°51'331025.7
2016-Jun-19 19:29N 46°10' W 123°03'1480.9
2016-Jun-19 19:18N 46°12' W 123°23'1418.0
2016-Jun-19 18:32N 46°10' W 123°03'331818.4
2016-Jun-19 18:31N 46°11' W 123°51'56888.1
2016-Jun-19 18:27N 45°37' W 122°48'43177.6
2016-Jun-19 18:12N 46°12' W 123°23'4365.0
2016-Jun-19 17:33N 45°37' W 122°48'351986.4
2016-Jun-19 17:32N 46°10' W 123°03'331818.4
2016-Jun-19 17:31N 46°11' W 123°51'205026.0
2016-Jun-19 17:30N 46°12' W 123°23'4344.7
2016-Jun-19 16:33N 45°37' W 122°48'561555.9
2016-Jun-19 16:31N 46°11' W 123°51'331034.6
2016-Jun-19 16:29N 46°10' W 123°03'14191.8
2016-Jun-19 16:24N 46°12' W 123°23'4350.0
2016-Jun-19 15:33N 45°37' W 122°48'351788.0
2016-Jun-19 15:32N 46°10' W 123°03'331967.4
2016-Jun-19 15:31N 46°11' W 123°51'2095.2
2016-Jun-19 15:18N 46°12' W 123°23'4356.5
2016-Jun-19 14:33N 45°37' W 122°48'561555.9
2016-Jun-19 14:31N 46°11' W 123°51'331043.6
2016-Jun-19 14:29N 46°10' W 123°03'14191.1
2016-Jun-19 14:24N 46°12' W 123°23'4349.9
2016-Jun-19 13:33N 45°37' W 122°48'561605.6
2016-Jun-19 13:31N 46°11' W 123°51'33991.8
2016-Jun-19 13:29N 46°10' W 123°03'3537.3
2016-Jun-19 12:33N 45°37' W 122°48'351814.0
2016-Jun-19 12:32N 46°10' W 123°03'332143.1
2016-Jun-19 12:31N 46°11' W 123°51'2020.4
2016-Jun-19 11:33N 46°12' W 123°23'435145.6
2016-Jun-19 11:33N 45°37' W 122°48'561543.9
2016-Jun-19 11:31N 46°11' W 123°51'331017.1
2016-Jun-19 11:29N 46°10' W 123°03'1415.1
2016-Jun-19 10:33N 46°12' W 123°23'20445.3
2016-Jun-19 10:31N 46°11' W 123°51'563716.8
2016-Jun-19 10:30N 45°37' W 122°48'351925.3
2016-Jun-19 10:29N 46°10' W 123°03'1415.1
2016-Jun-19 09:33N 46°12' W 123°23'435513.1
2016-Jun-19 09:33N 45°37' W 122°48'561568.0
2016-Jun-19 09:31N 46°11' W 123°51'33991.8
2016-Jun-19 09:29N 46°10' W 123°03'3537.3
2016-Jun-19 08:33N 45°37' W 122°48'351896.4
2016-Jun-19 08:32N 46°10' W 123°03'332105.5
2016-Jun-19 08:31N 46°11' W 123°51'202814.6
2016-Jun-19 08:30N 46°12' W 123°23'4344.7
2016-Jun-19 07:33N 45°37' W 122°48'351896.4
2016-Jun-19 07:32N 46°10' W 123°03'331967.4
2016-Jun-19 07:31N 46°11' W 123°51'20348.3
2016-Jun-19 07:27N 46°12' W 123°23'0 0.0
2016-Jun-19 06:33N 46°12' W 123°23'434410.5
2016-Jun-19 06:33N 45°37' W 122°48'351814.0
2016-Jun-19 06:32N 46°10' W 123°03'332307.9
2016-Jun-19 06:31N 46°11' W 123°51'3333.8
2016-Jun-19 05:32N 46°10' W 123°03'332264.4
2016-Jun-19 05:31N 46°11' W 123°51'563460.4
2016-Jun-19 05:30N 45°37' W 122°48'0 0.0
2016-Jun-19 04:33N 45°37' W 122°48'561686.6
2016-Jun-19 04:31N 46°11' W 123°51'33945.0
2016-Jun-19 04:29N 46°10' W 123°03'1433.1
2016-Jun-19 04:03N 46°12' W 123°23'2036.0
2016-Jun-19 03:31N 46°11' W 123°51'202426.3
2016-Jun-19 03:30N 46°12' W 123°23'435323.0
2016-Jun-19 03:30N 45°37' W 122°48'351840.6
2016-Jun-19 03:29N 46°10' W 123°03'3537.3
2016-Jun-19 02:33N 45°37' W 122°48'351813.7
2016-Jun-19 02:32N 46°10' W 123°03'332400.3
2016-Jun-19 02:31N 46°11' W 123°51'202426.3
2016-Jun-19 02:30N 46°12' W 123°23'1414.3
2016-Jun-19 01:32N 46°10' W 123°03'332353.2
2016-Jun-19 01:31N 46°11' W 123°51'56836.3
2016-Jun-19 01:27N 45°37' W 122°48'431072.0
2016-Jun-19 01:24N 46°12' W 123°23'4349.9
2016-Jun-19 00:33N 45°37' W 122°48'351896.1
2016-Jun-19 00:32N 46°10' W 123°03'332449.3
2016-Jun-19 00:31N 46°11' W 123°51'2093.3
2016-Jun-19 00:18N 46°12' W 123°23'4356.5
2016-Jun-18 23:33N 45°37' W 122°48'351896.1
2016-Jun-18 23:32N 46°10' W 123°03'332222.5
2016-Jun-18 23:31N 46°11' W 123°51'20341.6
2016-Jun-18 23:27N 46°12' W 123°23'4347.1
2016-Jun-18 22:33N 45°37' W 122°48'351925.6
2016-Jun-18 22:32N 46°10' W 123°03'332105.5
2016-Jun-18 22:31N 46°11' W 123°51'202606.1
2016-Jun-18 22:30N 46°12' W 123°23'4344.7
2016-Jun-18 21:33N 45°37' W 122°48'351925.3
2016-Jun-18 21:32N 46°10' W 123°03'332308.0
2016-Jun-18 21:31N 46°11' W 123°51'20180.4
2016-Jun-18 21:24N 46°12' W 123°23'4349.9
2016-Jun-18 20:33N 45°37' W 122°48'561686.6
2016-Jun-18 20:31N 46°11' W 123°51'33930.3
2016-Jun-18 20:29N 46°10' W 123°03'14114.5
2016-Jun-18 20:21N 46°12' W 123°23'4353.0
2016-Jun-18 19:33N 45°37' W 122°48'351868.1
2016-Jun-18 19:32N 46°10' W 123°03'332307.9
2016-Jun-18 19:31N 46°11' W 123°51'3333.8
2016-Jun-18 18:32N 46°10' W 123°03'332307.9
2016-Jun-18 18:31N 46°11' W 123°51'563087.8
2016-Jun-18 18:30N 45°37' W 122°48'0 0.0
2016-Jun-18 17:33N 45°37' W 122°48'351714.6
2016-Jun-18 17:32N 46°10' W 123°03'332727.6
2016-Jun-18 17:31N 46°11' W 123°51'202069.5
2016-Jun-18 17:30N 46°12' W 123°23'4344.7
2016-Jun-18 16:33N 45°37' W 122°48'351840.6
2016-Jun-18 16:32N 46°10' W 123°03'332500.3
2016-Jun-18 16:31N 46°11' W 123°51'202198.9
2016-Jun-18 16:30N 46°12' W 123°23'4344.7
2016-Jun-18 15:33N 45°37' W 122°48'351840.6
2016-Jun-18 15:32N 46°10' W 123°03'332500.3
2016-Jun-18 15:31N 46°11' W 123°51'202269.8
2016-Jun-18 15:30N 46°12' W 123°23'4344.7
2016-Jun-18 14:33N 45°37' W 122°48'561745.3
2016-Jun-18 14:31N 46°11' W 123°51'33930.3
2016-Jun-18 14:29N 46°10' W 123°03'1437.4
2016-Jun-18 14:06N 46°12' W 123°23'4376.8
2016-Jun-18 13:33N 45°37' W 122°48'351896.1
2016-Jun-18 13:32N 46°10' W 123°03'332400.3
2016-Jun-18 13:31N 46°11' W 123°51'2093.3
2016-Jun-18 13:18N 46°12' W 123°23'  

Dump ship's entire track history